| time (UTC) | temp F | wind direction | speed knots | gust knots | rain 1hr in | rain 24hr in | rain mn in | humidity % | barometer mb |
| 20260902220955 | 76 | 106 | 8.7 | 25.2 | 0.11 | 0.16 | 0.16 | 83 | 1015.7 |
| 20260902220754 | 79 | 40 | 6.1 | 25.2 | 0.04 | 0.09 | 0.09 | 83 | 1016.2 |
| 20260902220554 | 81 | 333 | 3.5 | 10.4 | 0.00 | 0.05 | 0.05 | 87 | 1016.0 |
| 20260902220354 | 81 | 251 | 2.6 | 7.0 | 0.00 | 0.05 | 0.05 | 87 | 1014.8 |
| 20260902220153 | 81 | 185 | 1.7 | 6.1 | 0.00 | 0.05 | 0.05 | 86 | 1014.3 |
| 20260902215953 | 81 | 62 | 0.9 | 3.5 | 0.00 | 0.05 | 0.05 | 86 | 1013.8 |
| 20260902215753 | 81 | 74 | 0.9 | 3.5 | 0.00 | 0.05 | 0.05 | 86 | 1013.5 |
| 20260902215552 | 81 | 105 | 0.9 | 3.5 | 0.00 | 0.05 | 0.05 | 85 | 1013.2 |
| 20260902215352 | 81 | 139 | 0.9 | 4.3 | 0.00 | 0.05 | 0.05 | 85 | 1013.0 |
| 20260902215152 | 81 | 162 | 0.9 | 4.3 | 0.00 | 0.05 | 0.05 | 85 | 1012.6 |
| 20260902214951 | 81 | 244 | 0.9 | 5.2 | 0.00 | 0.05 | 0.05 | 85 | 1012.2 |
| 20260902214751 | 81 | 264 | 0.9 | 6.1 | 0.00 | 0.05 | 0.05 | 84 | 1012.1 |
| 20260902214551 | 81 | 219 | 1.7 | 7.0 | 0.00 | 0.05 | 0.05 | 84 | 1011.7 |
| 20260902214350 | 81 | 237 | 2.6 | 7.0 | 0.00 | 0.05 | 0.05 | 83 | 1011.3 |
| 20260902214150 | 82 | 229 | 2.6 | 7.0 | 0.00 | 0.05 | 0.05 | 83 | 1011.1 |
| 20260902213950 | 82 | 208 | 2.6 | 7.0 | 0.00 | 0.05 | 0.05 | 82 | 1010.6 |
| 20260902213750 | 82 | 196 | 2.6 | 7.0 | 0.00 | 0.05 | 0.05 | 82 | 1010.6 |
| 20260902213549 | 82 | 181 | 2.6 | 6.1 | 0.00 | 0.05 | 0.05 | 82 | 1010.9 |
| 20260902213349 | 82 | 206 | 3.5 | 6.1 | 0.00 | 0.05 | 0.05 | 82 | 1010.9 |
| 20260902213149 | 82 | 212 | 2.6 | 6.1 | 0.00 | 0.05 | 0.05 | 82 | 1010.9 |
| 20260902212948 | 83 | 230 | 2.6 | 6.1 | 0.00 | 0.05 | 0.05 | 82 | 1011.2 |
| 20260902212748 | 83 | 224 | 2.6 | 6.1 | 0.00 | 0.05 | 0.05 | 82 | 1011.1 |
| 20260902212548 | 83 | 221 | 2.6 | 6.1 | 0.00 | 0.05 | 0.05 | 82 | 1011.1 |
| 20260902212347 | 83 | 234 | 2.6 | 6.1 | 0.00 | 0.05 | 0.05 | 82 | 1011.0 |
| 20260902212147 | 83 | 237 | 2.6 | 6.1 | 0.00 | 0.05 | 0.05 | 83 | 1011.0 |
| 20260902211947 | 83 | 234 | 2.6 | 6.1 | 0.00 | 0.05 | 0.05 | 83 | 1010.9 |
| 20260902211746 | 84 | 224 | 2.6 | 6.1 | 0.00 | 0.05 | 0.05 | 83 | 1011.0 |
| 20260902211546 | 84 | 234 | 2.6 | 8.7 | 0.00 | 0.05 | 0.05 | 82 | 1011.0 |
| 20260902211346 | 84 | 230 | 1.7 | 8.7 | 0.00 | 0.05 | 0.05 | 82 | 1011.0 |
| 20260902211145 | 84 | 235 | 2.6 | 8.7 | 0.00 | 0.05 | 0.05 | 82 | 1010.9 |
| 20260902210945 | 84 | 227 | 3.5 | 8.7 | 0.00 | 0.05 | 0.05 | 82 | 1010.8 |
| 20260902210745 | 84 | 217 | 4.3 | 8.7 | 0.00 | 0.05 | 0.05 | 82 | 1010.7 |
| 20260902210545 | 84 | 217 | 3.5 | 8.7 | 0.00 | 0.05 | 0.05 | 82 | 1010.7 |
| 20260902210344 | 85 | 228 | 2.6 | 7.0 | 0.00 | 0.05 | 0.05 | 83 | 1010.9 |
| 20260902210144 | 85 | 222 | 2.6 | 7.0 | 0.00 | 0.05 | 0.05 | 83 | 1011.0 |
| 20260902205944 | 85 | 240 | 2.6 | 7.0 | 0.00 | 0.05 | 0.05 | 84 | 1011.1 |
| 20260902205743 | 85 | 202 | 1.7 | 5.2 | 0.00 | 0.05 | 0.05 | 84 | 1011.1 |
| 20260902205543 | 85 | 198 | 1.7 | 6.1 | 0.00 | 0.05 | 0.05 | 83 | 1011.2 |
| 20260902205343 | 86 | 231 | 2.6 | 6.1 | 0.00 | 0.05 | 0.05 | 83 | 1011.2 |
| 20260902205142 | 86 | 222 | 2.6 | 7.8 | 0.00 | 0.05 | 0.05 | 82 | 1011.1 |
| 20260902204942 | 86 | 226 | 2.6 | 7.8 | 0.00 | 0.05 | 0.05 | 81 | 1011.1 |
| 20260902204742 | 86 | 233 | 1.7 | 7.8 | 0.00 | 0.05 | 0.05 | 81 | 1011.2 |
| 20260902204541 | 86 | 228 | 2.6 | 7.8 | 0.00 | 0.05 | 0.05 | 82 | 1011.3 |
| 20260902204341 | 86 | 201 | 3.5 | 7.8 | 0.00 | 0.05 | 0.05 | 82 | 1011.4 |
| 20260902204141 | 86 | 201 | 3.5 | 7.8 | 0.00 | 0.05 | 0.05 | 82 | 1011.5 |
| 20260902203940 | 86 | 226 | 1.7 | 7.0 | 0.00 | 0.05 | 0.05 | 82 | 1011.5 |
| 20260902203740 | 86 | 202 | 2.6 | 7.0 | 0.00 | 0.05 | 0.05 | 83 | 1011.5 |
| 20260902203540 | 86 | 218 | 2.6 | 7.8 | 0.00 | 0.05 | 0.05 | 83 | 1011.6 |
| 20260902203340 | 86 | 237 | 2.6 | 7.8 | 0.00 | 0.05 | 0.05 | 82 | 1011.7 |
| 20260902203139 | 86 | 228 | 2.6 | 8.7 | 0.00 | 0.05 | 0.05 | 82 | 1011.8 |
| 20260902202939 | 86 | 209 | 3.5 | 8.7 | 0.00 | 0.05 | 0.05 | 82 | 1011.7 |
| 20260902202739 | 86 | 208 | 3.5 | 8.7 | 0.00 | 0.05 | 0.05 | 82 | 1011.8 |
| 20260902202538 | 86 | 236 | 2.6 | 8.7 | 0.00 | 0.05 | 0.05 | 83 | 1011.8 |
| 20260902202338 | 86 | 236 | 4.3 | 8.7 | 0.00 | 0.05 | 0.05 | 83 | 1011.8 |
| 20260902202138 | 86 | 233 | 3.5 | 8.7 | 0.00 | 0.05 | 0.05 | 82 | 1011.9 |
| 20260902201937 | 86 | 227 | 3.5 | 6.1 | 0.00 | 0.05 | 0.05 | 82 | 1011.9 |
| 20260902201737 | 86 | 231 | 2.6 | 10.4 | 0.00 | 0.05 | 0.05 | 84 | 1011.8 |
| 20260902201537 | 86 | 221 | 2.6 | 10.4 | 0.00 | 0.05 | 0.05 | 84 | 1011.7 |
| 20260902201336 | 86 | 227 | 3.5 | 10.4 | 0.00 | 0.05 | 0.05 | 84 | 1011.8 |
| 20260902201136 | 86 | 213 | 4.3 | 10.4 | 0.00 | 0.05 | 0.05 | 84 | 1011.8 |
| 20260902200936 | 86 | 215 | 4.3 | 10.4 | 0.00 | 0.05 | 0.05 | 84 | 1011.9 |
| 20260902200735 | 86 | 213 | 3.5 | 8.7 | 0.00 | 0.05 | 0.05 | 84 | 1012.0 |
| 20260902200535 | 86 | 215 | 3.5 | 8.7 | 0.00 | 0.05 | 0.05 | 84 | 1012.2 |
| 20260902200335 | 85 | 208 | 2.6 | 8.7 | 0.00 | 0.05 | 0.05 | 85 | 1012.2 |
| 20260902200134 | 85 | 220 | 3.5 | 6.1 | 0.00 | 0.05 | 0.05 | 85 | 1012.3 |
| 20260902195934 | 85 | 225 | 3.5 | 6.1 | 0.00 | 0.05 | 0.05 | 86 | 1012.4 |
| 20260902195734 | 85 | 215 | 3.5 | 6.1 | 0.00 | 0.05 | 0.05 | 86 | 1012.5 |
| 20260902195534 | 84 | 216 | 2.6 | 6.1 | 0.00 | 0.05 | 0.05 | 86 | 1012.4 |
| 20260902195333 | 84 | 217 | 2.6 | 6.1 | 0.00 | 0.05 | 0.05 | 88 | 1012.4 |
| 20260902195133 | 83 | 223 | 1.7 | 6.1 | 0.00 | 0.05 | 0.05 | 88 | 1012.6 |
| 20260902194933 | 83 | 219 | 2.6 | 5.2 | 0.00 | 0.05 | 0.05 | 88 | 1012.7 |
| 20260902194732 | 83 | 220 | 2.6 | 5.2 | 0.00 | 0.05 | 0.05 | 89 | 1012.6 |
| 20260902194532 | 82 | 227 | 2.6 | 5.2 | 0.00 | 0.05 | 0.05 | 89 | 1012.7 |
| 20260902194332 | 82 | 222 | 2.6 | 5.2 | 0.00 | 0.05 | 0.05 | 89 | 1012.8 |
| 20260902194131 | 82 | 227 | 2.6 | 5.2 | 0.00 | 0.05 | 0.05 | 89 | 1012.8 |
| 20260902193931 | 82 | 221 | 2.6 | 5.2 | 0.00 | 0.05 | 0.05 | 89 | 1012.8 |
| 20260902193731 | 82 | 223 | 2.6 | 4.3 | 0.00 | 0.05 | 0.05 | 89 | 1012.9 |
| 20260902193530 | 82 | 243 | 1.7 | 4.3 | 0.00 | 0.05 | 0.05 | 89 | 1013.1 |
| 20260902193330 | 82 | 259 | 0.0 | 4.3 | 0.00 | 0.05 | 0.05 | 89 | 1013.2 |
| 20260902193130 | 82 | 252 | 0.9 | 4.3 | 0.00 | 0.05 | 0.05 | 89 | 1013.2 |
| 20260902192930 | 82 | 234 | 0.9 | 4.3 | 0.00 | 0.05 | 0.05 | 88 | 1013.2 |
| 20260902192729 | 82 | 237 | 0.9 | 4.3 | 0.00 | 0.05 | 0.05 | 88 | 1013.3 |
| 20260902192529 | 82 | 207 | 0.9 | 4.3 | 0.00 | 0.05 | 0.05 | 88 | 1013.4 |
| 20260902192329 | 82 | 194 | 0.9 | 4.3 | 0.00 | 0.05 | 0.05 | 88 | 1013.5 |
| 20260902192128 | 82 | 231 | 1.7 | 4.3 | 0.00 | 0.05 | 0.05 | 88 | 1013.5 |
| 20260902191928 | 82 | 238 | 0.0 | 4.3 | 0.00 | 0.05 | 0.05 | 88 | 1013.5 |
| 20260902191728 | 83 | 226 | 0.0 | 5.2 | 0.00 | 0.05 | 0.05 | 88 | 1013.5 |
| 20260902191527 | 83 | 223 | 0.9 | 5.2 | 0.00 | 0.05 | 0.05 | 88 | 1013.5 |
| 20260902191327 | 83 | 219 | 0.9 | 5.2 | 0.00 | 0.05 | 0.05 | 87 | 1013.6 |
| 20260902191127 | 83 | 228 | 0.9 | 5.2 | 0.00 | 0.05 | 0.05 | 87 | 1013.7 |
| 20260902190926 | 83 | 230 | 1.7 | 5.2 | 0.00 | 0.05 | 0.05 | 87 | 1013.6 |
| 20260902190726 | 83 | 215 | 0.9 | 3.5 | 0.00 | 0.05 | 0.05 | 86 | 1013.7 |
| 20260902190526 | 83 | 221 | 0.9 | 3.5 | 0.00 | 0.05 | 0.05 | 86 | 1013.6 |
| 20260902190326 | 83 | 216 | 1.7 | 3.5 | 0.00 | 0.05 | 0.05 | 86 | 1013.6 |
| 20260902190125 | 83 | 240 | 1.7 | 4.3 | 0.00 | 0.05 | 0.05 | 86 | 1013.5 |
| 20260902185925 | 84 | 247 | 0.9 | 4.3 | 0.00 | 0.05 | 0.05 | 86 | 1013.6 |
| 20260902185725 | 84 | 252 | 1.7 | 4.3 | 0.00 | 0.05 | 0.05 | 85 | 1013.6 |
| 20260902185524 | 84 | 240 | 1.7 | 4.3 | 0.00 | 0.05 | 0.05 | 85 | 1013.7 |
| 20260902185324 | 84 | 208 | 1.7 | 3.5 | 0.00 | 0.05 | 0.05 | 85 | 1013.9 |
| 20260902185124 | 84 | 226 | 1.7 | 4.3 | 0.00 | 0.05 | 0.05 | 85 | 1013.9 |
| 20260902184923 | 84 | 232 | 1.7 | 4.3 | 0.00 | 0.05 | 0.05 | 84 | 1013.9 |
| 20260902184723 | 84 | 168 | 0.9 | 4.3 | 0.00 | 0.05 | 0.05 | 84 | 1013.8 |
| 20260902184523 | 85 | 196 | 1.7 | 6.1 | 0.00 | 0.05 | 0.05 | 84 | 1013.8 |
| 20260902184322 | 85 | 208 | 1.7 | 6.1 | 0.00 | 0.05 | 0.05 | 83 | 1013.8 |
| 20260902184122 | 85 | 223 | 1.7 | 6.1 | 0.00 | 0.05 | 0.05 | 83 | 1013.8 |
| 20260902183922 | 85 | 216 | 2.6 | 6.1 | 0.00 | 0.05 | 0.05 | 83 | 1013.7 |
| 20260902183721 | 86 | 196 | 3.5 | 6.1 | 0.00 | 0.05 | 0.05 | 82 | 1013.7 |
| 20260902183521 | 86 | 215 | 1.7 | 6.1 | 0.00 | 0.05 | 0.05 | 82 | 1013.6 |
| 20260902183321 | 86 | 254 | 1.7 | 5.2 | 0.00 | 0.05 | 0.05 | 82 | 1013.6 |
| 20260902183121 | 86 | 229 | 1.7 | 5.2 | 0.00 | 0.05 | 0.05 | 81 | 1013.7 |
| 20260902182920 | 86 | 201 | 1.7 | 5.2 | 0.00 | 0.05 | 0.05 | 81 | 1013.8 |
| 20260902182720 | 87 | 208 | 2.6 | 5.2 | 0.00 | 0.05 | 0.05 | 80 | 1013.9 |
| 20260902182520 | 87 | 236 | 1.7 | 5.2 | 0.00 | 0.05 | 0.05 | 80 | 1013.9 |
| 20260902182319 | 87 | 235 | 1.7 | 7.0 | 0.00 | 0.05 | 0.05 | 81 | 1013.7 |
| 20260902182119 | 87 | 225 | 2.6 | 7.0 | 0.00 | 0.05 | 0.05 | 82 | 1013.9 |
| 20260902181919 | 86 | 224 | 2.6 | 7.0 | 0.00 | 0.05 | 0.05 | 82 | 1013.9 |
| 20260902181718 | 86 | 224 | 2.6 | 7.0 | 0.00 | 0.05 | 0.05 | 82 | 1013.9 |
| 20260902181518 | 86 | 194 | 3.5 | 7.0 | 0.00 | 0.05 | 0.05 | 81 | 1013.9 |
| 20260902181318 | 86 | 227 | 2.6 | 7.0 | 0.00 | 0.05 | 0.05 | 81 | 1013.8 |
| 20260902181118 | 86 | 222 | 2.6 | 7.0 | 0.00 | 0.05 | 0.05 | 82 | 1013.8 |
| 20260902180917 | 86 | 216 | 2.6 | 7.0 | 0.00 | 0.05 | 0.05 | 82 | 1013.7 |
| 20260902180717 | 86 | 197 | 2.6 | 7.8 | 0.00 | 0.05 | 0.05 | 82 | 1013.6 |
| 20260902180517 | 86 | 199 | 3.5 | 7.8 | 0.00 | 0.05 | 0.05 | 82 | 1013.4 |
| 20260902180316 | 86 | 218 | 2.6 | 7.8 | 0.00 | 0.05 | 0.05 | 82 | 1013.4 |
| 20260902180116 | 86 | 212 | 3.5 | 7.8 | 0.00 | 0.05 | 0.05 | 83 | 1013.4 |
| 20260902175916 | 86 | 220 | 4.3 | 7.8 | 0.00 | 0.05 | 0.05 | 83 | 1013.3 |
| 20260902175715 | 85 | 200 | 3.5 | 6.1 | 0.00 | 0.05 | 0.05 | 83 | 1013.2 |
| 20260902175515 | 85 | 207 | 3.5 | 7.0 | 0.00 | 0.05 | 0.05 | 83 | 1013.2 |
| 20260902175315 | 85 | 226 | 2.6 | 10.4 | 0.00 | 0.05 | 0.05 | 84 | 1013.2 |
| 20260902175114 | 85 | 223 | 1.7 | 11.3 | 0.00 | 0.05 | 0.05 | 84 | 1013.2 |
| 20260902174914 | 84 | 210 | 2.6 | 11.3 | 0.00 | 0.05 | 0.05 | 84 | 1013.3 |
| 20260902174714 | 84 | 228 | 3.5 | 11.3 | 0.00 | 0.05 | 0.05 | 84 | 1013.3 |
| 20260902174513 | 84 | 231 | 3.5 | 11.3 | 0.00 | 0.05 | 0.05 | 84 | 1013.4 |
| 20260902174313 | 84 | 227 | 2.6 | 10.4 | 0.00 | 0.05 | 0.05 | 84 | 1013.4 |
| 20260902174113 | 84 | 222 | 3.5 | 10.4 | 0.00 | 0.05 | 0.05 | 84 | 1013.4 |
| 20260902173912 | 84 | 215 | 2.6 | 8.7 | 0.00 | 0.05 | 0.05 | 85 | 1013.4 |
| 20260902173712 | 84 | 222 | 4.3 | 8.7 | 0.00 | 0.05 | 0.05 | 85 | 1013.5 |
| 20260902173512 | 83 | 209 | 3.5 | 7.0 | 0.00 | 0.05 | 0.05 | 86 | 1013.4 |
| 20260902173312 | 83 | 184 | 2.6 | 8.7 | 0.00 | 0.05 | 0.05 | 86 | 1013.6 |
| 20260902173111 | 83 | 180 | 1.7 | 8.7 | 0.00 | 0.05 | 0.05 | 86 | 1013.7 |
| 20260902172911 | 83 | 232 | 1.7 | 8.7 | 0.00 | 0.05 | 0.05 | 86 | 1013.7 |
| 20260902172711 | 82 | 213 | 3.5 | 8.7 | 0.00 | 0.05 | 0.05 | 86 | 1013.8 |
| 20260902172510 | 82 | 226 | 3.5 | 9.6 | 0.00 | 0.05 | 0.05 | 86 | 1013.9 |
| 20260902172310 | 82 | 238 | 1.7 | 9.6 | 0.00 | 0.05 | 0.05 | 87 | 1013.9 |
| 20260902172110 | 82 | 228 | 2.6 | 9.6 | 0.00 | 0.05 | 0.05 | 87 | 1014.0 |
| 20260902171909 | 82 | 217 | 3.5 | 9.6 | 0.00 | 0.05 | 0.05 | 87 | 1014.1 |
| 20260902171709 | 82 | 223 | 1.7 | 7.8 | 0.00 | 0.05 | 0.05 | 87 | 1014.1 |
| 20260902171509 | 82 | 226 | 3.5 | 9.6 | 0.00 | 0.05 | 0.05 | 87 | 1014.1 |
| 20260902171308 | 82 | 195 | 2.6 | 9.6 | 0.00 | 0.05 | 0.05 | 86 | 1014.3 |
| 20260902171108 | 82 | 212 | 2.6 | 9.6 | 0.00 | 0.05 | 0.05 | 86 | 1014.2 |
| 20260902170908 | 82 | 213 | 3.5 | 9.6 | 0.00 | 0.05 | 0.05 | 86 | 1014.1 |
| 20260902170707 | 82 | 250 | 1.7 | 9.6 | 0.00 | 0.05 | 0.05 | 87 | 1014.1 |
| 20260902170507 | 82 | 284 | 1.7 | 7.0 | 0.00 | 0.05 | 0.05 | 87 | 1014.2 |
| 20260902170307 | 82 | 251 | 2.6 | 7.0 | 0.00 | 0.05 | 0.05 | 86 | 1014.3 |
| 20260902170107 | 82 | 206 | 1.7 | 7.0 | 0.00 | 0.05 | 0.05 | 87 | 1014.3 |
| 20260902165906 | 82 | 201 | 3.5 | 7.0 | 0.00 | 0.05 | 0.05 | 87 | 1014.4 |
| 20260902165706 | 82 | 217 | 2.6 | 7.0 | 0.00 | 0.05 | 0.05 | 87 | 1014.3 |
| 20260902165506 | 82 | 233 | 1.7 | 7.0 | 0.00 | 0.05 | 0.05 | 88 | 1014.3 |
| 20260902165309 | 81 | 215 | 1.7 | 7.0 | 0.00 | 0.05 | 0.05 | 88 | 1014.3 |
| 20260902165105 | 81 | 202 | 2.6 | 7.0 | 0.00 | 0.05 | 0.05 | 88 | 1014.4 |
| 20260902164905 | 81 | 215 | 2.6 | 7.0 | 0.00 | 0.05 | 0.05 | 88 | 1014.6 |
| 20260902164704 | 81 | 224 | 2.6 | 6.1 | 0.00 | 0.05 | 0.05 | 90 | 1014.6 |
| 20260902164504 | 80 | 225 | 3.5 | 6.1 | 0.00 | 0.05 | 0.05 | 89 | 1014.7 |
| 20260902164304 | 80 | 218 | 1.7 | 6.1 | 0.00 | 0.05 | 0.05 | 90 | 1014.8 |
| 20260902164103 | 80 | 207 | 2.6 | 6.1 | 0.00 | 0.05 | 0.05 | 90 | 1014.8 |
| 20260902163903 | 80 | 220 | 2.6 | 6.1 | 0.00 | 0.05 | 0.05 | 90 | 1014.8 |
| 20260902163703 | 80 | 235 | 1.7 | 6.1 | 0.00 | 0.05 | 0.05 | 91 | 1014.8 |
| 20260902163503 | 79 | 226 | 1.7 | 6.1 | 0.00 | 0.05 | 0.05 | 91 | 1014.9 |
| 20260902163302 | 79 | 202 | 2.6 | 6.1 | 0.00 | 0.05 | 0.05 | 91 | 1014.9 |
| 20260902163102 | 79 | 191 | 2.6 | 6.1 | 0.00 | 0.05 | 0.05 | 90 | 1014.9 |
| 20260902162902 | 79 | 229 | 2.6 | 6.1 | 0.00 | 0.05 | 0.05 | 90 | 1015.0 |
| 20260902162701 | 79 | 189 | 2.6 | 6.1 | 0.00 | 0.05 | 0.05 | 90 | 1015.0 |
| 20260902162501 | 79 | 173 | 1.7 | 6.1 | 0.00 | 0.05 | 0.05 | 91 | 1015.0 |
| 20260902162301 | 79 | 214 | 1.7 | 5.2 | 0.00 | 0.05 | 0.05 | 92 | 1015.1 |
| 20260902162100 | 78 | 256 | 1.7 | 5.2 | 0.00 | 0.05 | 0.05 | 93 | 1015.1 |
| 20260902161900 | 78 | 261 | 1.7 | 4.3 | 0.00 | 0.05 | 0.05 | 93 | 1015.0 |
| 20260902161700 | 78 | 235 | 0.9 | 5.2 | 0.00 | 0.05 | 0.05 | 94 | 1015.1 |
| 20260902161459 | 77 | 209 | 0.9 | 5.2 | 0.00 | 0.05 | 0.05 | 95 | 1015.0 |
| 20260902161259 | 77 | 230 | 1.7 | 5.2 | 0.00 | 0.05 | 0.05 | 95 | 1015.0 |
| 20260902161059 | 76 | 226 | 1.7 | 5.2 | 0.00 | 0.05 | 0.05 | 95 | 1015.0 |
| 20260902160858 | 76 | 181 | 0.9 | 5.2 | 0.00 | 0.05 | 0.05 | 96 | 1015.1 |
| 20260902160658 | 76 | 197 | 1.7 | 4.3 | 0.00 | 0.05 | 0.05 | 96 | 1015.1 |
| 20260902160458 | 76 | 234 | 0.9 | 4.3 | 0.01 | 0.05 | 0.05 | 95 | 1015.2 |
| 20260902160258 | 76 | 228 | 1.7 | 4.3 | 0.02 | 0.05 | 0.05 | 96 | 1015.2 |
| 20260902160057 | 75 | 202 | 1.7 | 4.3 | 0.05 | 0.05 | 0.05 | 96 | 1015.2 |
| 20260902155857 | 75 | 249 | 1.7 | 4.3 | 0.05 | 0.05 | 0.05 | 96 | 1015.3 |
| 20260902155657 | 75 | 214 | 1.7 | 4.3 | 0.05 | 0.05 | 0.05 | 96 | 1015.2 |
| 20260902155456 | 75 | 197 | 1.7 | 4.3 | 0.05 | 0.05 | 0.05 | 96 | 1015.2 |
| 20260902155256 | 75 | 195 | 1.7 | 4.3 | 0.05 | 0.05 | 0.05 | 97 | 1015.2 |
| 20260902155056 | 75 | 220 | 1.7 | 4.3 | 0.05 | 0.05 | 0.05 | 97 | 1015.2 |
| 20260902154855 | 75 | 239 | 0.9 | 4.3 | 0.05 | 0.05 | 0.05 | 97 | 1015.2 |
| 20260902154655 | 75 | 243 | 0.9 | 4.3 | 0.05 | 0.05 | 0.05 | 97 | 1015.2 |
| 20260902154455 | 74 | 222 | 1.7 | 4.3 | 0.05 | 0.05 | 0.05 | 97 | 1015.1 |
| 20260902154254 | 74 | 225 | 1.7 | 5.2 | 0.05 | 0.05 | 0.05 | 97 | 1015.1 |
| 20260902154054 | 74 | 230 | 0.9 | 5.2 | 0.05 | 0.05 | 0.05 | 97 | 1015.1 |
| 20260902153854 | 74 | 217 | 0.9 | 5.2 | 0.05 | 0.05 | 0.05 | 97 | 1015.1 |
| 20260902153653 | 74 | 238 | 1.7 | 5.2 | 0.05 | 0.05 | 0.05 | 98 | 1015.0 |
| 20260902153453 | 74 | 254 | 1.7 | 5.2 | 0.05 | 0.05 | 0.05 | 98 | 1015.0 |
| 20260902153253 | 74 | 235 | 0.9 | 3.5 | 0.05 | 0.05 | 0.05 | 98 | 1015.0 |
| 20260902153052 | 74 | 229 | 1.7 | 5.2 | 0.05 | 0.05 | 0.05 | 98 | 1015.1 |
| 20260902152852 | 74 | 224 | 0.9 | 5.2 | 0.05 | 0.05 | 0.05 | 98 | 1015.0 |
| 20260902152652 | 74 | 225 | 0.9 | 5.2 | 0.05 | 0.05 | 0.05 | 98 | 1015.1 |
| 20260902152452 | 74 | 210 | 1.7 | 6.1 | 0.05 | 0.05 | 0.05 | 97 | 1015.0 |
| 20260902152251 | 74 | 204 | 2.6 | 6.1 | 0.05 | 0.05 | 0.05 | 97 | 1015.1 |
| 20260902152051 | 74 | 214 | 1.7 | 6.1 | 0.05 | 0.05 | 0.05 | 97 | 1015.1 |
| 20260902151851 | 74 | 217 | 1.7 | 6.1 | 0.05 | 0.05 | 0.05 | 97 | 1015.0 |
| 20260902151650 | 74 | 215 | 2.6 | 6.1 | 0.05 | 0.05 | 0.05 | 97 | 1015.0 |
| 20260902151450 | 74 | 211 | 0.9 | 6.1 | 0.05 | 0.05 | 0.05 | 97 | 1015.0 |
| 20260902151250 | 75 | 213 | 1.7 | 4.3 | 0.05 | 0.05 | 0.05 | 97 | 1015.0 |
| 20260902151049 | 75 | 220 | 1.7 | 4.3 | 0.05 | 0.05 | 0.05 | 97 | 1015.0 |
| 20260902150849 | 75 | 215 | 2.6 | 4.3 | 0.05 | 0.05 | 0.05 | 96 | 1015.0 |
| 20260902150649 | 75 | 225 | 1.7 | 4.3 | 0.05 | 0.05 | 0.05 | 96 | 1015.0 |
| 20260902150448 | 76 | 205 | 0.0 | 4.3 | 0.04 | 0.04 | 0.04 | 96 | 1014.8 |
| 20260902150248 | 76 | 218 | 0.9 | 4.3 | 0.03 | 0.03 | 0.03 | 96 | 1014.6 |
| 20260902150048 | 76 | 237 | 0.9 | 4.3 | 0.00 | 0.00 | 0.00 | 96 | 1014.8 |
| 20260902145848 | 76 | 238 | 0.9 | 1.7 | 0.00 | 0.00 | 0.00 | 96 | 1015.2 |
| 20260902145647 | 76 | 238 | 0.9 | 1.7 | 0.00 | 0.00 | 0.00 | 96 | 1015.3 |
| 20260902145447 | 76 | 239 | 0.9 | 1.7 | 0.00 | 0.00 | 0.00 | 96 | 1015.2 |
| 20260902145247 | 76 | 233 | 0.0 | 2.6 | 0.00 | 0.00 | 0.00 | 96 | 1015.3 |
| 20260902145046 | 76 | 229 | 0.9 | 2.6 | 0.00 | 0.00 | 0.00 | 96 | 1015.3 |
| 20260902144846 | 76 | 228 | 0.0 | 2.6 | 0.00 | 0.00 | 0.00 | 96 | 1015.2 |
| 20260902144646 | 76 | 228 | 0.9 | 2.6 | 0.00 | 0.00 | 0.00 | 96 | 1015.2 |
| 20260902144445 | 76 | 228 | 0.9 | 2.6 | 0.00 | 0.00 | 0.00 | 96 | 1015.2 |
| 20260902144245 | 76 | 228 | 0.9 | 2.6 | 0.00 | 0.00 | 0.00 | 96 | 1015.3 |
| 20260902144045 | 76 | 228 | 0.9 | 1.7 | 0.00 | 0.00 | 0.00 | 96 | 1015.3 |
| 20260902143844 | 76 | 228 | 0.0 | 1.7 | 0.00 | 0.00 | 0.00 | 96 | 1015.3 |
| 20260902143644 | 75 | 228 | 0.9 | 1.7 | 0.00 | 0.00 | 0.00 | 96 | 1015.1 |
| 20260902143444 | 75 | 228 | 0.0 | 1.7 | 0.00 | 0.00 | 0.00 | 96 | 1015.1 |
| 20260902143243 | 75 | 228 | 0.0 | 0.9 | 0.00 | 0.00 | 0.00 | 97 | 1015.0 |
| 20260902143043 | 75 | 0 | 0.0 | 1.7 | 0.00 | 0.00 | 0.00 | 97 | 1015.1 |
| 20260902142843 | 75 | 228 | 0.0 | 1.7 | 0.00 | 0.00 | 0.00 | 97 | 1015.0 |
| 20260902142643 | 75 | 228 | 0.0 | 1.7 | 0.00 | 0.00 | 0.00 | 97 | 1015.0 |
| 20260902142442 | 75 | 228 | 0.0 | 1.7 | 0.00 | 0.00 | 0.00 | 97 | 1015.1 |
| 20260902142242 | 75 | 228 | 0.9 | 1.7 | 0.00 | 0.00 | 0.00 | 97 | 1015.1 |
| 20260902142042 | 75 | 228 | 0.0 | 1.7 | 0.00 | 0.00 | 0.00 | 98 | 1015.2 |
| 20260902141841 | 75 | 228 | 0.0 | 0.9 | 0.00 | 0.00 | 0.00 | 98 | 1015.2 |
| 20260902141641 | 74 | 228 | 0.0 | 3.5 | 0.00 | 0.00 | 0.00 | 98 | 1015.2 |
| 20260902141441 | 74 | 227 | 0.0 | 3.5 | 0.00 | 0.00 | 0.00 | 98 | 1015.2 |
| 20260902141240 | 74 | 227 | 0.0 | 3.5 | 0.00 | 0.00 | 0.00 | 98 | 1015.3 |
| 20260902141040 | 74 | 223 | 0.0 | 3.5 | 0.00 | 0.00 | 0.00 | 98 | 1015.2 |
| 20260902140840 | 74 | 221 | 0.9 | 3.5 | 0.00 | 0.00 | 0.00 | 98 | 1015.2 |
| 20260902140639 | 74 | 227 | 0.0 | 3.5 | 0.00 | 0.00 | 0.00 | 99 | 1015.3 |
| 20260902140439 | 74 | 0 | 0.0 | 0.9 | 0.00 | 0.00 | 0.00 | 99 | 1015.3 |
| 20260902140239 | 74 | 227 | 0.0 | 0.9 | 0.00 | 0.00 | 0.00 | 99 | 1015.3 |
| 20260902140038 | 74 | 78 | 0.0 | 1.7 | 0.00 | 0.00 | 0.00 | 99 | 1015.3 |
| 20260902135838 | 73 | 73 | 0.0 | 1.7 | 0.00 | 0.00 | 0.00 | 99 | 1015.3 |
| 20260902135638 | 73 | 0 | 0.0 | 1.7 | 0.00 | 0.00 | 0.00 | 99 | 1015.3 |
| 20260902135438 | 73 | 0 | 0.0 | 1.7 | 0.00 | 0.00 | 0.00 | 99 | 1015.3 |
| 20260902135237 | 73 | 72 | 0.0 | 1.7 | 0.00 | 0.00 | 0.00 | 99 | 1015.2 |
| 20260902135037 | 73 | 62 | 0.0 | 1.7 | 0.00 | 0.00 | 0.00 | 100 | 1015.2 |
| 20260902134837 | 73 | 72 | 0.0 | 1.7 | 0.00 | 0.00 | 0.00 | 99 | 1015.2 |
| 20260902134636 | 73 | 230 | 0.0 | 1.7 | 0.00 | 0.00 | 0.00 | 100 | 1015.2 |
| 20260902134436 | 73 | 240 | 0.0 | 1.7 | 0.00 | 0.00 | 0.00 | 100 | 1015.2 |
| 20260902134236 | 73 | 253 | 0.0 | 1.7 | 0.00 | 0.00 | 0.00 | 100 | 1015.2 |
| 20260902134035 | 73 | 21 | 0.0 | 0.9 | 0.00 | 0.00 | 0.00 | 100 | 1015.2 |
| 20260902133835 | 73 | 21 | 0.0 | 0.9 | 0.00 | 0.00 | 0.00 | 100 | 1015.2 |
| 20260902133635 | 73 | 21 | 0.0 | 0.9 | 0.00 | 0.00 | 0.00 | 100 | 1015.2 |
| 20260902133434 | 73 | 22 | 0.0 | 0.9 | 0.00 | 0.00 | 0.00 | 100 | 1015.2 |
| 20260902133234 | 73 | 26 | 0.0 | 0.9 | 0.00 | 0.00 | 0.00 | 100 | 1015.3 |
| 20260902133034 | 73 | 27 | 0.0 | 0.9 | 0.00 | 0.00 | 0.00 | 100 | 1015.2 |
| 20260902132833 | 73 | 27 | 0.0 | 0.9 | 0.00 | 0.00 | 0.00 | 100 | 1015.2 |
| 20260902132633 | 73 | 27 | 0.0 | 0.9 | 0.00 | 0.00 | 0.00 | 100 | 1015.2 |
| 20260902132433 | 73 | 0 | 0.0 | 0.9 | 0.00 | 0.00 | 0.00 | 100 | 1015.2 |
| 20260902132232 | 73 | 0 | 0.0 | 0.9 | 0.00 | 0.00 | 0.00 | 100 | 1015.2 |
| 20260902132032 | 73 | 0 | 0.0 | 0.9 | 0.00 | 0.00 | 0.00 | 100 | 1015.1 |
| 20260902131832 | 73 | 27 | 0.0 | 0.9 | 0.00 | 0.00 | 0.00 | 100 | 1015.2 |
| 20260902131632 | 72 | 27 | 0.0 | 0.9 | 0.00 | 0.00 | 0.00 | 100 | 1015.2 |
| 20260902131431 | 72 | 27 | 0.0 | 0.9 | 0.00 | 0.00 | 0.00 | 100 | 1015.1 |
| 20260902131231 | 73 | 27 | 0.0 | 0.9 | 0.00 | 0.00 | 0.00 | 100 | 1015.1 |
| 20260902131031 | 73 | 27 | 0.0 | 0.9 | 0.00 | 0.00 | 0.00 | 100 | 1015.1 |
| 20260902130830 | 73 | 0 | 0.0 | 0.9 | 0.00 | 0.00 | 0.00 | 100 | 1015.1 |
| 20260902130630 | 73 | 27 | 0.0 | 0.9 | 0.00 | 0.00 | 0.00 | 100 | 1015.1 |
| 20260902130430 | 73 | 27 | 0.0 | 0.9 | 0.00 | 0.00 | 0.00 | 100 | 1015.1 |
| 20260902130229 | 73 | 0 | 0.0 | 0.9 | 0.00 | 0.00 | 0.00 | 100 | 1015.1 |
| 20260902130029 | 73 | 0 | 0.0 | 0.9 | 0.00 | 0.00 | 0.00 | 100 | 1015.0 |
| 20260902125829 | 73 | 0 | 0.0 | 1.7 | 0.00 | 0.00 | 0.00 | 100 | 1015.0 |
| 20260902125628 | 73 | 27 | 0.0 | 1.7 | 0.00 | 0.00 | 0.00 | 100 | 1015.0 |
| 20260902125428 | 73 | 0 | 0.0 | 1.7 | 0.00 | 0.00 | 0.00 | 100 | 1015.1 |
| 20260902125228 | 73 | 49 | 0.0 | 1.7 | 0.00 | 0.00 | 0.00 | 100 | 1015.0 |
| 20260902125027 | 73 | 49 | 0.0 | 1.7 | 0.00 | 0.00 | 0.00 | 100 | 1015.0 |
| 20260902124827 | 73 | 220 | 0.0 | 0.9 | 0.00 | 0.00 | 0.00 | 100 | 1014.9 |
| 20260902124627 | 73 | 220 | 0.0 | 0.9 | 0.00 | 0.00 | 0.00 | 100 | 1014.9 |
| 20260902124427 | 73 | 220 | 0.0 | 0.9 | 0.00 | 0.00 | 0.00 | 100 | 1014.9 |
| 20260902124226 | 73 | 220 | 0.0 | 0.9 | 0.00 | 0.00 | 0.00 | 100 | 1014.8 |
| 20260902124026 | 73 | 0 | 0.0 | 0.9 | 0.00 | 0.00 | 0.00 | 100 | 1014.8 |
| 20260902123826 | 73 | 0 | 0.0 | 0.9 | 0.00 | 0.00 | 0.00 | 100 | 1014.8 |
| 20260902123625 | 73 | 0 | 0.0 | 0.9 | 0.00 | 0.00 | 0.00 | 100 | 1014.8 |
| 20260902123425 | 73 | 220 | 0.0 | 0.9 | 0.00 | 0.00 | 0.00 | 100 | 1014.7 |
| 20260902123225 | 73 | 220 | 0.0 | 0.9 | 0.00 | 0.00 | 0.00 | 100 | 1014.8 |
| 20260902123024 | 73 | 0 | 0.0 | 0.9 | 0.00 | 0.00 | 0.00 | 100 | 1014.7 |
| 20260902122824 | 72 | 0 | 0.0 | 0.9 | 0.00 | 0.00 | 0.00 | 100 | 1014.6 |
| 20260902122624 | 72 | 220 | 0.0 | 0.9 | 0.00 | 0.00 | 0.00 | 100 | 1014.6 |
| 20260902122423 | 72 | 220 | 0.0 | 0.9 | 0.00 | 0.00 | 0.00 | 100 | 1014.7 |
| 20260902122223 | 72 | 220 | 0.0 | 0.9 | 0.00 | 0.00 | 0.00 | 100 | 1014.7 |
| 20260902122023 | 72 | 0 | 0.0 | 0.9 | 0.00 | 0.00 | 0.00 | 100 | 1014.8 |
| 20260902121822 | 72 | 220 | 0.0 | 0.9 | 0.00 | 0.00 | 0.00 | 100 | 1014.8 |
| 20260902121622 | 72 | 220 | 0.0 | 0.9 | 0.00 | 0.00 | 0.00 | 100 | 1014.7 |
| 20260902121422 | 72 | 220 | 0.0 | 0.9 | 0.00 | 0.00 | 0.00 | 100 | 1014.7 |
| 20260902121222 | 72 | 220 | 0.0 | 0.9 | 0.00 | 0.00 | 0.00 | 100 | 1014.7 |
| 20260902121021 | 72 | 220 | 0.0 | 0.9 | 0.00 | 0.00 | 0.00 | 100 | 1014.7 |
| 20260902120821 | 72 | 220 | 0.0 | 0.9 | 0.00 | 0.00 | 0.00 | 100 | 1014.8 |
| 20260902120621 | 72 | 220 | 0.0 | 0.9 | 0.00 | 0.00 | 0.00 | 100 | 1014.8 |
| 20260902120420 | 72 | 0 | 0.0 | 0.9 | 0.00 | 0.00 | 0.00 | 100 | 1014.8 |
| 20260902120220 | 72 | 220 | 0.0 | 1.7 | 0.00 | 0.00 | 0.00 | 100 | 1014.7 |
| 20260902120020 | 72 | 220 | 0.0 | 2.6 | 0.00 | 0.00 | 0.00 | 100 | 1014.7 |
| 20260902115819 | 72 | 220 | 0.0 | 2.6 | 0.00 | 0.00 | 0.00 | 100 | 1014.8 |
| 20260902115619 | 72 | 194 | 0.0 | 2.6 | 0.00 | 0.00 | 0.00 | 100 | 1014.9 |
| 20260902115419 | 72 | 185 | 0.9 | 2.6 | 0.00 | 0.00 | 0.00 | 100 | 1014.9 |
| 20260902115218 | 72 | 209 | 0.9 | 2.6 | 0.00 | 0.00 | 0.00 | 100 | 1014.9 |
| 20260902115018 | 72 | 246 | 0.0 | 2.6 | 0.00 | 0.00 | 0.00 | 100 | 1014.9 |
| 20260902114818 | 72 | 246 | 0.0 | 2.6 | 0.00 | 0.00 | 0.00 | 100 | 1014.8 |
| 20260902114618 | 72 | 246 | 0.9 | 3.5 | 0.00 | 0.00 | 0.00 | 100 | 1014.7 |
| 20260902114417 | 72 | 237 | 0.9 | 3.5 | 0.00 | 0.00 | 0.00 | 100 | 1014.7 |
| 20260902114217 | 72 | 205 | 0.9 | 4.3 | 0.00 | 0.00 | 0.00 | 100 | 1014.7 |
| 20260902114017 | 72 | 223 | 0.9 | 5.2 | 0.00 | 0.00 | 0.00 | 100 | 1014.7 |
| 20260902113816 | 72 | 210 | 0.9 | 5.2 | 0.00 | 0.00 | 0.00 | 100 | 1014.7 |
| 20260902113616 | 72 | 197 | 0.9 | 5.2 | 0.00 | 0.00 | 0.00 | 100 | 1014.7 |
| 20260902113416 | 72 | 213 | 1.7 | 5.2 | 0.00 | 0.00 | 0.00 | 100 | 1014.7 |
| 20260902113215 | 72 | 224 | 1.7 | 3.5 | 0.00 | 0.00 | 0.00 | 100 | 1014.7 |
| 20260902113015 | 72 | 226 | 0.9 | 3.5 | 0.00 | 0.00 | 0.00 | 100 | 1014.7 |
| 20260902112815 | 72 | 240 | 0.9 | 3.5 | 0.00 | 0.00 | 0.00 | 100 | 1014.6 |
| 20260902112614 | 71 | 238 | 0.9 | 2.6 | 0.00 | 0.00 | 0.00 | 100 | 1014.6 |
| 20260902112414 | 71 | 234 | 0.0 | 4.3 | 0.00 | 0.00 | 0.00 | 100 | 1014.6 |
| 20260902112214 | 71 | 234 | 0.0 | 4.3 | 0.00 | 0.00 | 0.00 | 100 | 1014.6 |
| 20260902112013 | 71 | 234 | 0.9 | 4.3 | 0.00 | 0.00 | 0.00 | 100 | 1014.6 |
| 20260902111813 | 71 | 224 | 0.9 | 4.3 | 0.00 | 0.00 | 0.00 | 100 | 1014.4 |
| 20260902111613 | 71 | 131 | 0.9 | 4.3 | 0.00 | 0.00 | 0.00 | 100 | 1014.3 |
| 20260902111412 | 71 | 133 | 1.7 | 4.3 | 0.00 | 0.00 | 0.00 | 100 | 1014.2 |
| 20260902111212 | 71 | 230 | 0.9 | 4.3 | 0.00 | 0.00 | 0.00 | 100 | 1014.2 |
| 20260902111012 | 71 | 243 | 1.7 | 5.2 | 0.00 | 0.00 | 0.00 | 100 | 1014.1 |
| 20260902110812 | 71 | 212 | 0.9 | 5.2 | 0.00 | 0.00 | 0.00 | 100 | 1014.0 |
| 20260902110611 | 71 | 201 | 1.7 | 5.2 | 0.00 | 0.00 | 0.00 | 100 | 1013.9 |
| 20260902110411 | 71 | 216 | 2.6 | 5.2 | 0.00 | 0.00 | 0.00 | 100 | 1013.8 |
| 20260902110211 | 71 | 207 | 1.7 | 5.2 | 0.00 | 0.00 | 0.00 | 100 | 1013.8 |
| 20260902110010 | 71 | 204 | 1.7 | 4.3 | 0.00 | 0.00 | 0.00 | 100 | 1013.9 |
| 20260902105810 | 71 | 181 | 1.7 | 5.2 | 0.00 | 0.00 | 0.00 | 100 | 1013.8 |
| 20260902105610 | 71 | 200 | 1.7 | 5.2 | 0.00 | 0.00 | 0.00 | 100 | 1013.8 |
| 20260902105409 | 70 | 182 | 1.7 | 5.2 | 0.00 | 0.00 | 0.00 | 100 | 1013.8 |
| 20260902105209 | 70 | 193 | 2.6 | 5.2 | 0.00 | 0.00 | 0.00 | 100 | 1013.7 |
| 20260902105009 | 70 | 231 | 1.7 | 5.2 | 0.00 | 0.00 | 0.00 | 100 | 1013.7 |
| 20260902104808 | 70 | 242 | 1.7 | 5.2 | 0.00 | 0.00 | 0.00 | 100 | 1013.6 |
| 20260902104608 | 70 | 247 | 1.7 | 5.2 | 0.00 | 0.00 | 0.00 | 100 | 1013.5 |
| 20260902104408 | 70 | 232 | 0.9 | 5.2 | 0.00 | 0.00 | 0.00 | 100 | 1013.4 |
| 20260902104208 | 70 | 218 | 1.7 | 4.3 | 0.00 | 0.00 | 0.00 | 100 | 1013.2 |
| 20260902104007 | 70 | 201 | 1.7 | 4.3 | 0.00 | 0.00 | 0.00 | 100 | 1013.2 |
| 20260902103807 | 70 | 238 | 0.9 | 4.3 | 0.00 | 0.00 | 0.00 | 100 | 1013.2 |
| 20260902103607 | 70 | 247 | 0.9 | 4.3 | 0.00 | 0.00 | 0.00 | 100 | 1013.1 |
| 20260902103406 | 70 | 223 | 1.7 | 4.3 | 0.00 | 0.00 | 0.00 | 100 | 1013.1 |
| 20260902103206 | 70 | 222 | 1.7 | 4.3 | 0.00 | 0.00 | 0.00 | 100 | 1013.1 |
| 20260902103006 | 70 | 222 | 1.7 | 3.5 | 0.00 | 0.00 | 0.00 | 100 | 1013.0 |
| 20260902102805 | 70 | 214 | 1.7 | 3.5 | 0.00 | 0.00 | 0.00 | 100 | 1013.0 |
| 20260902102605 | 70 | 211 | 0.0 | 2.6 | 0.00 | 0.00 | 0.00 | 100 | 1013.0 |
| 20260902102405 | 70 | 218 | 0.9 | 2.6 | 0.00 | 0.00 | 0.00 | 100 | 1013.0 |
| 20260902102204 | 70 | 228 | 0.9 | 2.6 | 0.00 | 0.00 | 0.00 | 100 | 1012.9 |
| 20260902102004 | 70 | 237 | 0.0 | 2.6 | 0.00 | 0.00 | 0.00 | 100 | 1012.9 |
| 20260902101804 | 70 | 236 | 0.9 | 3.5 | 0.00 | 0.00 | 0.00 | 100 | 1012.9 |
| 20260902101603 | 70 | 231 | 0.0 | 3.5 | 0.00 | 0.00 | 0.00 | 100 | 1012.9 |
| 20260902101403 | 70 | 217 | 0.9 | 3.5 | 0.00 | 0.00 | 0.00 | 100 | 1013.0 |
| 20260902101203 | 70 | 214 | 0.9 | 3.5 | 0.00 | 0.00 | 0.00 | 100 | 1013.0 |
| 20260902101002 | 70 | 227 | 0.9 | 3.5 | 0.00 | 0.00 | 0.00 | 100 | 1013.2 |
| 20260902100802 | 70 | 226 | 0.9 | 2.6 | 0.00 | 0.00 | 0.00 | 100 | 1013.2 |
| 20260902100602 | 70 | 244 | 0.0 | 2.6 | 0.00 | 0.00 | 0.00 | 100 | 1013.4 |
| 20260902100402 | 70 | 240 | 0.9 | 3.5 | 0.00 | 0.00 | 0.00 | 100 | 1013.4 |
| 20260902100201 | 70 | 226 | 0.9 | 3.5 | 0.00 | 0.00 | 0.00 | 100 | 1013.4 |
| 20260902100001 | 70 | 233 | 0.9 | 3.5 | 0.00 | 0.00 | 0.00 | 100 | 1013.5 |
| 20260902095801 | 70 | 242 | 0.9 | 3.5 | 0.00 | 0.00 | 0.00 | 100 | 1013.4 |
| 20260902095600 | 70 | 219 | 1.7 | 3.5 | 0.00 | 0.00 | 0.00 | 100 | 1013.5 |
| 20260902095400 | 70 | 234 | 0.9 | 3.5 | 0.00 | 0.00 | 0.00 | 100 | 1013.5 |
| 20260902095200 | 70 | 238 | 0.9 | 3.5 | 0.00 | 0.00 | 0.00 | 100 | 1013.4 |
| 20260902094959 | 70 | 232 | 0.9 | 3.5 | 0.00 | 0.00 | 0.00 | 100 | 1013.4 |
| 20260902094759 | 70 | 246 | 0.0 | 1.7 | 0.00 | 0.00 | 0.00 | 100 | 1013.4 |
| 20260902094559 | 70 | 206 | 0.9 | 3.5 | 0.00 | 0.00 | 0.00 | 100 | 1013.3 |
| 20260902094358 | 70 | 230 | 0.0 | 3.5 | 0.00 | 0.00 | 0.00 | 100 | 1013.3 |
| 20260902094158 | 70 | 222 | 0.9 | 3.5 | 0.00 | 0.00 | 0.00 | 100 | 1013.3 |
| 20260902093958 | 70 | 215 | 0.9 | 3.5 | 0.00 | 0.00 | 0.00 | 100 | 1013.3 |
| 20260902093757 | 70 | 218 | 1.7 | 3.5 | 0.00 | 0.00 | 0.00 | 100 | 1013.2 |
| 20260902093557 | 70 | 231 | 0.9 | 3.5 | 0.00 | 0.00 | 0.00 | 100 | 1013.2 |
| 20260902093357 | 70 | 206 | 0.9 | 4.3 | 0.00 | 0.00 | 0.00 | 100 | 1013.2 |
| 20260902093157 | 70 | 219 | 1.7 | 4.3 | 0.00 | 0.00 | 0.00 | 100 | 1013.4 |
| 20260902092956 | 70 | 220 | 1.7 | 4.3 | 0.00 | 0.00 | 0.00 | 100 | 1013.4 |
| 20260902092756 | 70 | 213 | 1.7 | 4.3 | 0.00 | 0.00 | 0.00 | 100 | 1013.5 |
| 20260902092556 | 70 | 228 | 1.7 | 4.3 | 0.00 | 0.00 | 0.00 | 100 | 1013.5 |
| 20260902092355 | 70 | 221 | 1.7 | 3.5 | 0.00 | 0.00 | 0.00 | 100 | 1013.5 |
| 20260902092155 | 70 | 223 | 0.9 | 3.5 | 0.00 | 0.00 | 0.00 | 100 | 1013.5 |
| 20260902091955 | 70 | 217 | 0.9 | 3.5 | 0.00 | 0.00 | 0.00 | 100 | 1013.6 |
| 20260902091754 | 70 | 220 | 0.9 | 3.5 | 0.00 | 0.00 | 0.00 | 100 | 1013.6 |
| 20260902091554 | 70 | 232 | 0.9 | 3.5 | 0.00 | 0.00 | 0.00 | 100 | 1013.5 |
| 20260902091354 | 70 | 234 | 0.9 | 3.5 | 0.00 | 0.00 | 0.00 | 100 | 1013.5 |
| 20260902091153 | 70 | 237 | 0.9 | 3.5 | 0.00 | 0.00 | 0.00 | 100 | 1013.5 |
| 20260902090953 | 70 | 244 | 0.9 | 4.3 | 0.00 | 0.00 | 0.00 | 100 | 1013.5 |
| 20260902090753 | 69 | 237 | 0.9 | 4.3 | 0.00 | 0.00 | 0.00 | 100 | 1013.5 |
| 20260902090553 | 69 | 214 | 1.7 | 4.3 | 0.00 | 0.00 | 0.00 | 100 | 1013.5 |
| 20260902090352 | 69 | 221 | 1.7 | 4.3 | 0.00 | 0.00 | 0.00 | 100 | 1013.5 |
| 20260902090152 | 69 | 211 | 1.7 | 4.3 | 0.00 | 0.00 | 0.00 | 100 | 1013.6 |
| 20260902085952 | 69 | 217 | 1.7 | 3.5 | 0.00 | 0.00 | 0.00 | 100 | 1013.6 |
| 20260902085751 | 69 | 227 | 1.7 | 3.5 | 0.00 | 0.00 | 0.00 | 100 | 1013.7 |
| 20260902085551 | 69 | 232 | 1.7 | 3.5 | 0.00 | 0.00 | 0.00 | 100 | 1013.7 |
| 20260902085351 | 69 | 232 | 0.9 | 3.5 | 0.00 | 0.00 | 0.00 | 100 | 1013.6 |
| 20260902085150 | 69 | 219 | 0.9 | 3.5 | 0.00 | 0.00 | 0.00 | 100 | 1013.6 |
| 20260902084950 | 69 | 232 | 0.9 | 3.5 | 0.00 | 0.00 | 0.00 | 100 | 1013.6 |
| 20260902084750 | 69 | 219 | 1.7 | 3.5 | 0.00 | 0.00 | 0.00 | 100 | 1013.7 |
| 20260902084549 | 69 | 230 | 1.7 | 3.5 | 0.00 | 0.00 | 0.00 | 100 | 1013.9 |
| 20260902084349 | 69 | 233 | 0.9 | 2.6 | 0.00 | 0.00 | 0.00 | 100 | 1013.9 |
| 20260902084149 | 69 | 235 | 0.0 | 3.5 | 0.00 | 0.00 | 0.00 | 100 | 1014.0 |
| 20260902083948 | 69 | 225 | 0.9 | 4.3 | 0.00 | 0.00 | 0.00 | 100 | 1014.1 |
| 20260902083748 | 69 | 209 | 0.9 | 4.3 | 0.00 | 0.00 | 0.00 | 100 | 1014.1 |
| 20260902083548 | 69 | 214 | 0.9 | 4.3 | 0.00 | 0.00 | 0.00 | 100 | 1013.9 |
| 20260902083348 | 69 | 205 | 0.9 | 4.3 | 0.00 | 0.00 | 0.00 | 100 | 1014.0 |
| 20260902083147 | 69 | 222 | 0.9 | 4.3 | 0.00 | 0.00 | 0.00 | 100 | 1014.0 |
| 20260902082947 | 69 | 223 | 0.9 | 3.5 | 0.00 | 0.00 | 0.00 | 100 | 1014.0 |
| 20260902082747 | 69 | 226 | 0.9 | 3.5 | 0.00 | 0.00 | 0.00 | 100 | 1014.1 |
| 20260902082546 | 69 | 222 | 0.9 | 3.5 | 0.00 | 0.00 | 0.00 | 100 | 1014.1 |
| 20260902082346 | 69 | 231 | 0.9 | 3.5 | 0.00 | 0.00 | 0.00 | 100 | 1014.1 |
| 20260902082146 | 69 | 50 | 0.0 | 1.7 | 0.00 | 0.00 | 0.00 | 100 | 1014.1 |
| 20260902081945 | 69 | 50 | 0.0 | 0.9 | 0.00 | 0.00 | 0.00 | 100 | 1014.0 |
| 20260902081745 | 69 | 50 | 0.0 | 0.9 | 0.00 | 0.00 | 0.00 | 100 | 1013.9 |
| 20260902081545 | 69 | 51 | 0.0 | 0.9 | 0.00 | 0.00 | 0.00 | 100 | 1014.0 |
| 20260902081344 | 69 | 51 | 0.0 | 0.9 | 0.00 | 0.00 | 0.00 | 100 | 1014.0 |
| 20260902081144 | 69 | 0 | 0.0 | 0.9 | 0.00 | 0.00 | 0.00 | 100 | 1013.9 |
| 20260902080944 | 69 | 0 | 0.0 | 0.9 | 0.00 | 0.00 | 0.00 | 100 | 1013.9 |
| 20260902080743 | 69 | 0 | 0.0 | 0.9 | 0.00 | 0.00 | 0.00 | 100 | 1014.1 |
| 20260902080543 | 69 | 232 | 0.0 | 0.9 | 0.00 | 0.00 | 0.00 | 100 | 1014.2 |
| 20260902080343 | 69 | 232 | 0.0 | 0.9 | 0.00 | 0.00 | 0.00 | 100 | 1014.3 |
| 20260902080143 | 69 | 0 | 0.0 | 0.9 | 0.00 | 0.00 | 0.00 | 100 | 1014.4 |
| 20260902075942 | 69 | 0 | 0.0 | 0.0 | 0.00 | 0.00 | 0.00 | 100 | 1014.4 |
| 20260902075742 | 69 | 0 | 0.0 | 0.0 | 0.00 | 0.00 | 0.00 | 100 | 1014.4 |
| 20260902075542 | 69 | 0 | 0.0 | 0.0 | 0.00 | 0.00 | 0.00 | 100 | 1014.3 |
| 20260902075341 | 69 | 0 | 0.0 | 0.0 | 0.00 | 0.00 | 0.00 | 100 | 1014.3 |
| 20260902075141 | 69 | 0 | 0.0 | 0.0 | 0.00 | 0.00 | 0.00 | 100 | 1014.4 |
| 20260902074941 | 69 | 0 | 0.0 | 0.0 | 0.00 | 0.00 | 0.00 | 100 | 1014.4 |
| 20260902074740 | 69 | 0 | 0.0 | 0.0 | 0.00 | 0.00 | 0.00 | 100 | 1014.4 |
| 20260902074540 | 69 | 0 | 0.0 | 0.0 | 0.00 | 0.00 | 0.00 | 100 | 1014.4 |
| 20260902074340 | 69 | 0 | 0.0 | 0.0 | 0.00 | 0.00 | 0.00 | 100 | 1014.4 |
| 20260902074139 | 69 | 0 | 0.0 | 0.0 | 0.00 | 0.00 | 0.00 | 100 | 1014.4 |
| 20260902073939 | 69 | 0 | 0.0 | 0.0 | 0.00 | 0.00 | 0.00 | 100 | 1014.5 |
| 20260902073739 | 69 | 0 | 0.0 | 0.0 | 0.00 | 0.00 | 0.00 | 100 | 1014.5 |
| 20260902073538 | 69 | 0 | 0.0 | 0.0 | 0.00 | 0.00 | 0.00 | 100 | 1014.5 |
| 20260902073338 | 69 | 0 | 0.0 | 0.0 | 0.00 | 0.00 | 0.00 | 100 | 1014.5 |
| 20260902073138 | 69 | 0 | 0.0 | 0.0 | 0.00 | 0.00 | 0.00 | 100 | 1014.5 |
| 20260902072938 | 69 | 0 | 0.0 | 0.0 | 0.00 | 0.00 | 0.00 | 100 | 1014.5 |
| 20260902072737 | 69 | 0 | 0.0 | 0.0 | 0.00 | 0.00 | 0.00 | 100 | 1014.5 |
| 20260902072537 | 69 | 0 | 0.0 | 0.0 | 0.00 | 0.00 | 0.00 | 100 | 1014.6 |
| 20260902072337 | 69 | 0 | 0.0 | 0.0 | 0.00 | 0.00 | 0.00 | 100 | 1014.7 |
| 20260902072136 | 69 | 0 | 0.0 | 0.0 | 0.00 | 0.00 | 0.00 | 100 | 1014.7 |
| 20260902071936 | 69 | 0 | 0.0 | 0.0 | 0.00 | 0.00 | 0.00 | 100 | 1014.6 |
| 20260902071736 | 69 | 0 | 0.0 | 0.0 | 0.00 | 0.00 | 0.00 | 100 | 1014.5 |
| 20260902071535 | 69 | 0 | 0.0 | 0.0 | 0.00 | 0.00 | 0.00 | 100 | 1014.4 |
| 20260902071335 | 69 | 0 | 0.0 | 0.0 | 0.00 | 0.00 | 0.00 | 100 | 1014.4 |
| 20260902071135 | 69 | 0 | 0.0 | 0.0 | 0.00 | 0.00 | 0.00 | 100 | 1014.4 |
| 20260902070934 | 69 | 0 | 0.0 | 0.0 | 0.00 | 0.00 | 0.00 | 100 | 1014.4 |
| 20260902070734 | 69 | 0 | 0.0 | 0.0 | 0.00 | 0.00 | 0.00 | 100 | 1014.3 |
| 20260902070534 | 69 | 0 | 0.0 | 0.9 | 0.00 | 0.00 | 0.00 | 100 | 1014.4 |
| 20260902070334 | 69 | 0 | 0.0 | 1.7 | 0.00 | 0.00 | 0.00 | 100 | 1014.5 |
| 20260902070133 | 69 | 0 | 0.0 | 1.7 | 0.00 | 0.00 | 0.00 | 100 | 1014.5 |
| 20260902065933 | 69 | 0 | 0.0 | 1.7 | 0.00 | 0.00 | 0.00 | 100 | 1014.6 |
| 20260902065733 | 69 | 12 | 0.0 | 1.7 | 0.00 | 0.00 | 0.00 | 100 | 1014.7 |
| 20260902065532 | 69 | 12 | 0.0 | 1.7 | 0.00 | 0.00 | 0.00 | 100 | 1014.8 |
| 20260902065332 | 69 | 12 | 0.0 | 0.9 | 0.00 | 0.00 | 0.00 | 100 | 1014.8 |
| 20260902065132 | 69 | 0 | 0.0 | 0.9 | 0.00 | 0.00 | 0.00 | 100 | 1014.9 |
| 20260902064931 | 69 | 0 | 0.0 | 0.0 | 0.00 | 0.00 | 0.00 | 100 | 1014.8 |
| 20260902064731 | 69 | 0 | 0.0 | 0.9 | 0.00 | 0.00 | 0.00 | 100 | 1014.8 |
| 20260902064531 | 69 | 0 | 0.0 | 1.7 | 0.00 | 0.00 | 0.00 | 100 | 1014.7 |
| 20260902064330 | 69 | 0 | 0.0 | 1.7 | 0.00 | 0.00 | 0.00 | 100 | 1014.8 |
| 20260902064130 | 69 | 12 | 0.0 | 1.7 | 0.00 | 0.00 | 0.00 | 100 | 1014.8 |
| 20260902063930 | 69 | 12 | 0.0 | 1.7 | 0.00 | 0.00 | 0.00 | 100 | 1014.7 |
| 20260902063730 | 69 | 12 | 0.0 | 1.7 | 0.00 | 0.00 | 0.00 | 100 | 1014.8 |
| 20260902063529 | 69 | 0 | 0.0 | 0.0 | 0.00 | 0.00 | 0.00 | 100 | 1014.8 |
| 20260902063329 | 69 | 0 | 0.0 | 0.0 | 0.00 | 0.00 | 0.00 | 100 | 1014.8 |
| 20260902063129 | 69 | 0 | 0.0 | 0.0 | 0.00 | 0.00 | 0.00 | 100 | 1014.7 |
| 20260902062928 | 69 | 0 | 0.0 | 0.0 | 0.00 | 0.00 | 0.00 | 100 | 1014.7 |
| 20260902062728 | 69 | 0 | 0.0 | 0.0 | 0.00 | 0.00 | 0.00 | 100 | 1014.7 |
| 20260902062528 | 69 | 0 | 0.0 | 0.0 | 0.00 | 0.00 | 0.00 | 100 | 1014.8 |
| 20260902062327 | 69 | 0 | 0.0 | 0.0 | 0.00 | 0.00 | 0.00 | 100 | 1014.8 |
| 20260902062127 | 69 | 0 | 0.0 | 0.0 | 0.00 | 0.00 | 0.00 | 100 | 1014.7 |
| 20260902061927 | 69 | 0 | 0.0 | 0.0 | 0.00 | 0.00 | 0.00 | 100 | 1014.7 |
| 20260902061726 | 69 | 0 | 0.0 | 0.0 | 0.00 | 0.00 | 0.00 | 100 | 1014.7 |
| 20260902061526 | 69 | 0 | 0.0 | 0.9 | 0.00 | 0.00 | 0.00 | 100 | 1014.8 |
| 20260902061326 | 69 | 0 | 0.0 | 0.9 | 0.00 | 0.00 | 0.00 | 100 | 1014.7 |
| 20260902061125 | 69 | 0 | 0.0 | 0.9 | 0.00 | 0.00 | 0.00 | 100 | 1014.8 |
| 20260902060925 | 69 | 0 | 0.0 | 1.7 | 0.00 | 0.00 | 0.00 | 100 | 1014.9 |
| 20260902060725 | 69 | 12 | 0.0 | 1.7 | 0.00 | 0.00 | 0.00 | 100 | 1014.9 |
| 20260902060525 | 69 | 0 | 0.0 | 1.7 | 0.00 | 0.00 | 0.00 | 100 | 1014.9 |
| 20260902060324 | 69 | 12 | 0.9 | 1.7 | 0.00 | 0.00 | 0.00 | 100 | 1014.9 |
| 20260902060124 | 69 | 12 | 0.9 | 1.7 | 0.00 | 0.00 | 0.00 | 100 | 1014.9 |
| 20260902055924 | 69 | 12 | 0.0 | 1.7 | 0.00 | 0.00 | 0.00 | 100 | 1014.9 |
| 20260902055723 | 69 | 12 | 0.0 | 1.7 | 0.00 | 0.00 | 0.00 | 100 | 1014.9 |
| 20260902055523 | 69 | 12 | 0.0 | 1.7 | 0.00 | 0.00 | 0.00 | 100 | 1015.0 |
| 20260902055323 | 69 | 0 | 0.0 | 0.9 | 0.00 | 0.00 | 0.00 | 100 | 1015.0 |
| 20260902055122 | 69 | 12 | 0.0 | 0.9 | 0.00 | 0.00 | 0.00 | 100 | 1014.9 |
| 20260902054922 | 69 | 12 | 0.0 | 0.9 | 0.00 | 0.00 | 0.00 | 100 | 1015.0 |
| 20260902054722 | 69 | 12 | 0.0 | 0.9 | 0.00 | 0.00 | 0.00 | 100 | 1015.0 |
| 20260902054521 | 69 | 12 | 0.0 | 0.9 | 0.00 | 0.00 | 0.00 | 100 | 1015.0 |
| 20260902054321 | 69 | 12 | 0.0 | 0.9 | 0.00 | 0.00 | 0.00 | 100 | 1015.2 |
| 20260902054121 | 69 | 0 | 0.0 | 0.9 | 0.00 | 0.00 | 0.00 | 100 | 1015.2 |
| 20260902053920 | 69 | 0 | 0.0 | 0.9 | 0.00 | 0.00 | 0.00 | 100 | 1015.2 |
| 20260902053720 | 69 | 12 | 0.0 | 0.9 | 0.00 | 0.00 | 0.00 | 100 | 1015.2 |
| 20260902053520 | 69 | 12 | 0.0 | 0.9 | 0.00 | 0.00 | 0.00 | 100 | 1015.2 |
| 20260902053320 | 69 | 0 | 0.0 | 0.9 | 0.00 | 0.00 | 0.00 | 100 | 1015.3 |
| 20260902053119 | 69 | 0 | 0.0 | 0.9 | 0.00 | 0.00 | 0.00 | 100 | 1015.2 |
| 20260902052919 | 69 | 0 | 0.0 | 0.9 | 0.00 | 0.00 | 0.00 | 100 | 1015.2 |
| 20260902052719 | 69 | 12 | 0.0 | 0.9 | 0.00 | 0.00 | 0.00 | 100 | 1015.2 |
| 20260902052518 | 69 | 0 | 0.0 | 0.9 | 0.00 | 0.00 | 0.00 | 100 | 1015.2 |
| 20260902052318 | 69 | 12 | 0.0 | 0.9 | 0.00 | 0.00 | 0.00 | 100 | 1015.2 |
| 20260902052118 | 69 | 12 | 0.0 | 0.9 | 0.00 | 0.00 | 0.00 | 100 | 1015.2 |
| 20260902051917 | 69 | 12 | 0.0 | 0.9 | 0.00 | 0.00 | 0.00 | 100 | 1015.1 |
| 20260902051717 | 69 | 0 | 0.0 | 0.9 | 0.00 | 0.00 | 0.00 | 100 | 1015.2 |
| 20260902051517 | 69 | 12 | 0.0 | 0.9 | 0.00 | 0.00 | 0.00 | 100 | 1015.2 |
| 20260902051316 | 69 | 12 | 0.0 | 1.7 | 0.00 | 0.00 | 0.00 | 100 | 1015.2 |
| 20260902051116 | 69 | 12 | 0.0 | 1.7 | 0.00 | 0.00 | 0.00 | 100 | 1015.2 |
| 20260902050916 | 69 | 0 | 0.0 | 1.7 | 0.00 | 0.00 | 0.00 | 100 | 1015.2 |
| 20260902050715 | 69 | 12 | 0.0 | 1.7 | 0.00 | 0.00 | 0.00 | 100 | 1015.1 |
| 20260902050515 | 69 | 12 | 0.0 | 1.7 | 0.00 | 0.00 | 0.00 | 100 | 1015.1 |
| 20260902050315 | 69 | 12 | 0.0 | 2.6 | 0.00 | 0.00 | 0.00 | 100 | 1015.1 |
| 20260902050115 | 69 | 47 | 0.0 | 2.6 | 0.00 | 0.00 | 0.00 | 100 | 1015.1 |
| 20260902045914 | 69 | 67 | 0.0 | 2.6 | 0.00 | 0.00 | 0.00 | 100 | 1015.1 |
| 20260902045714 | 69 | 75 | 0.0 | 2.6 | 0.00 | 0.00 | 0.00 | 100 | 1015.1 |
| 20260902045514 | 69 | 51 | 0.0 | 2.6 | 0.00 | 0.00 | 0.00 | 100 | 1015.1 |
| 20260902045313 | 69 | 41 | 0.0 | 1.7 | 0.00 | 0.00 | 0.00 | 100 | 1015.1 |
| 20260902045113 | 69 | 41 | 0.0 | 1.7 | 0.00 | 0.00 | 0.00 | 100 | 1015.2 |
| 20260902044913 | 69 | 40 | 0.0 | 1.7 | 0.00 | 0.00 | 0.00 | 100 | 1015.2 |
| 20260902044712 | 69 | 58 | 0.0 | 1.7 | 0.00 | 0.00 | 0.00 | 100 | 1015.1 |
| 20260902044512 | 69 | 62 | 0.0 | 1.7 | 0.00 | 0.00 | 0.00 | 100 | 1015.2 |
| 20260902044312 | 69 | 63 | 0.0 | 1.7 | 0.00 | 0.00 | 0.00 | 100 | 1015.2 |
| 20260902044111 | 69 | 63 | 0.0 | 2.6 | 0.00 | 0.00 | 0.00 | 100 | 1015.2 |
| 20260902043911 | 69 | 63 | 0.0 | 2.6 | 0.00 | 0.00 | 0.00 | 100 | 1015.2 |
| 20260902043711 | 69 | 63 | 0.0 | 3.5 | 0.00 | 0.00 | 0.00 | 100 | 1015.1 |
| 20260902043510 | 69 | 63 | 0.0 | 3.5 | 0.00 | 0.00 | 0.00 | 100 | 1015.2 |
| 20260902043310 | 69 | 68 | 0.9 | 3.5 | 0.00 | 0.00 | 0.00 | 100 | 1015.1 |
| 20260902043110 | 69 | 77 | 0.9 | 3.5 | 0.00 | 0.00 | 0.00 | 100 | 1015.1 |
| 20260902042909 | 69 | 58 | 0.0 | 0.9 | 0.00 | 0.00 | 0.00 | 100 | 1015.1 |
| 20260902042709 | 69 | 58 | 0.0 | 1.7 | 0.00 | 0.00 | 0.00 | 100 | 1015.2 |
| 20260902042509 | 69 | 58 | 0.0 | 2.6 | 0.00 | 0.00 | 0.00 | 100 | 1015.1 |
| 20260902042309 | 69 | 58 | 0.0 | 3.5 | 0.00 | 0.00 | 0.00 | 100 | 1015.1 |
| 20260902042108 | 69 | 65 | 0.0 | 4.3 | 0.00 | 0.00 | 0.00 | 100 | 1015.0 |
| 20260902041908 | 69 | 66 | 0.9 | 4.3 | 0.00 | 0.00 | 0.00 | 100 | 1015.0 |
| 20260902041708 | 69 | 67 | 0.9 | 4.3 | 0.00 | 0.00 | 0.00 | 100 | 1015.0 |
| 20260902041507 | 69 | 67 | 1.7 | 4.3 | 0.00 | 0.00 | 0.00 | 100 | 1014.9 |
| 20260902041307 | 69 | 81 | 0.9 | 4.3 | 0.00 | 0.00 | 0.00 | 100 | 1014.9 |
| 20260902041107 | 69 | 89 | 0.0 | 2.6 | 0.00 | 0.00 | 0.00 | 100 | 1014.9 |
| 20260902040906 | 69 | 89 | 0.0 | 2.6 | 0.00 | 0.00 | 0.00 | 100 | 1015.0 |
| 20260902040706 | 69 | 87 | 0.0 | 2.6 | 0.00 | 0.00 | 0.00 | 100 | 1015.0 |
| 20260902040506 | 69 | 48 | 0.0 | 2.6 | 0.00 | 0.00 | 0.00 | 100 | 1014.9 |
| 20260902040305 | 69 | 25 | 0.0 | 3.5 | 0.00 | 0.00 | 0.00 | 100 | 1014.9 |
| 20260902040105 | 69 | 35 | 0.0 | 3.5 | 0.00 | 0.00 | 0.00 | 100 | 1014.9 |
| 20260902035905 | 69 | 73 | 0.9 | 3.5 | 0.00 | 0.00 | 0.00 | 100 | 1014.8 |
| 20260902035705 | 69 | 59 | 0.9 | 3.5 | 0.00 | 0.00 | 0.00 | 100 | 1014.8 |
| 20260902035504 | 69 | 51 | 1.7 | 3.5 | 0.00 | 0.00 | 0.00 | 100 | 1014.9 |
| 20260902035305 | 69 | 17 | 0.9 | 2.6 | 0.00 | 0.00 | 0.00 | 100 | 1015.0 |
| 20260902035104 | 69 | 31 | 0.0 | 3.5 | 0.00 | 0.00 | 0.00 | 100 | 1015.0 |
| 20260902034903 | 69 | 40 | 0.0 | 3.5 | 0.00 | 0.00 | 0.00 | 100 | 1015.0 |
| 20260902034703 | 69 | 46 | 0.9 | 3.5 | 0.00 | 0.00 | 0.00 | 100 | 1014.9 |
| 20260902034503 | 69 | 61 | 0.9 | 3.5 | 0.00 | 0.00 | 0.00 | 100 | 1015.0 |
| 20260902034302 | 69 | 49 | 0.9 | 2.6 | 0.00 | 0.00 | 0.00 | 100 | 1014.9 |
| 20260902034102 | 69 | 21 | 0.9 | 2.6 | 0.00 | 0.00 | 0.00 | 100 | 1014.9 |
| 20260902033902 | 69 | 29 | 0.0 | 2.6 | 0.00 | 0.00 | 0.00 | 100 | 1014.9 |
| 20260902033702 | 69 | 27 | 0.0 | 2.6 | 0.00 | 0.00 | 0.00 | 100 | 1015.0 |
| 20260902033501 | 69 | 31 | 0.0 | 2.6 | 0.00 | 0.00 | 0.00 | 100 | 1014.9 |
| 20260902033301 | 69 | 37 | 0.9 | 2.6 | 0.00 | 0.00 | 0.00 | 100 | 1015.0 |
| 20260902033100 | 69 | 27 | 0.9 | 2.6 | 0.00 | 0.00 | 0.00 | 100 | 1014.9 |
| 20260902032900 | 69 | 46 | 0.9 | 2.6 | 0.00 | 0.00 | 0.00 | 100 | 1014.9 |
| 20260902032700 | 69 | 60 | 0.9 | 2.6 | 0.00 | 0.00 | 0.00 | 100 | 1014.9 |
| 20260902032500 | 69 | 60 | 0.0 | 2.6 | 0.00 | 0.00 | 0.00 | 100 | 1015.0 |
| 20260902032259 | 69 | 60 | 0.0 | 2.6 | 0.00 | 0.00 | 0.00 | 100 | 1015.0 |
| 20260902032059 | 69 | 60 | 0.9 | 4.3 | 0.00 | 0.00 | 0.00 | 100 | 1015.0 |
| 20260902031859 | 69 | 59 | 0.0 | 4.3 | 0.00 | 0.00 | 0.00 | 100 | 1015.0 |
| 20260902031658 | 69 | 59 | 0.0 | 4.3 | 0.00 | 0.00 | 0.00 | 100 | 1014.9 |
| 20260902031458 | 69 | 50 | 1.7 | 4.3 | 0.00 | 0.00 | 0.00 | 100 | 1014.9 |
| 20260902031258 | 69 | 35 | 0.9 | 4.3 | 0.00 | 0.00 | 0.00 | 100 | 1014.9 |
| 20260902031057 | 69 | 32 | 0.0 | 3.5 | 0.00 | 0.00 | 0.00 | 100 | 1015.0 |
| 20260902030857 | 69 | 32 | 0.0 | 3.5 | 0.00 | 0.00 | 0.00 | 100 | 1014.9 |
| 20260902030657 | 69 | 34 | 0.9 | 3.5 | 0.00 | 0.00 | 0.00 | 100 | 1014.9 |
| 20260902030456 | 69 | 45 | 0.9 | 3.5 | 0.00 | 0.00 | 0.00 | 100 | 1014.9 |
| 20260902030256 | 69 | 48 | 0.0 | 3.5 | 0.00 | 0.00 | 0.00 | 100 | 1014.9 |
| 20260902030056 | 69 | 48 | 0.0 | 3.5 | 0.00 | 0.00 | 0.00 | 100 | 1014.9 |
| 20260902025856 | 69 | 48 | 0.0 | 3.5 | 0.00 | 0.01 | 0.00 | 100 | 1014.9 |
| 20260902025655 | 69 | 47 | 0.9 | 3.5 | 0.00 | 0.01 | 0.00 | 100 | 1014.9 |
| 20260902025455 | 69 | 40 | 0.9 | 3.5 | 0.00 | 0.01 | 0.00 | 100 | 1015.0 |
| 20260902025255 | 69 | 51 | 0.0 | 3.5 | 0.00 | 0.01 | 0.00 | 100 | 1014.9 |
| 20260902025054 | 69 | 40 | 0.9 | 3.5 | 0.00 | 0.01 | 0.00 | 100 | 1014.9 |
| 20260902024854 | 69 | 40 | 0.9 | 3.5 | 0.00 | 0.01 | 0.00 | 100 | 1014.8 |
| 20260902024654 | 69 | 41 | 0.0 | 3.5 | 0.00 | 0.01 | 0.00 | 100 | 1014.8 |
| 20260902024453 | 69 | 41 | 0.0 | 3.5 | 0.00 | 0.01 | 0.00 | 100 | 1014.9 |
| 20260902024253 | 69 | 31 | 0.9 | 4.3 | 0.00 | 0.01 | 0.00 | 100 | 1015.0 |
| 20260902024053 | 69 | 23 | 0.9 | 4.3 | 0.00 | 0.01 | 0.00 | 100 | 1014.9 |
| 20260902023852 | 69 | 28 | 0.0 | 4.3 | 0.00 | 0.01 | 0.00 | 100 | 1014.9 |
| 20260902023652 | 69 | 28 | 0.0 | 4.3 | 0.00 | 0.01 | 0.00 | 100 | 1014.8 |
| 20260902023452 | 69 | 29 | 0.9 | 4.3 | 0.00 | 0.01 | 0.00 | 100 | 1014.8 |
| 20260902023252 | 69 | 52 | 0.9 | 4.3 | 0.00 | 0.01 | 0.00 | 100 | 1014.8 |
| 20260902023051 | 69 | 302 | 0.9 | 2.6 | 0.00 | 0.01 | 0.00 | 100 | 1014.8 |
| 20260902022851 | 69 | 356 | 0.0 | 2.6 | 0.00 | 0.01 | 0.00 | 100 | 1014.9 |
| 20260902022651 | 69 | 31 | 0.0 | 2.6 | 0.00 | 0.01 | 0.00 | 100 | 1014.8 |
| 20260902022450 | 69 | 41 | 0.0 | 2.6 | 0.00 | 0.01 | 0.00 | 100 | 1014.9 |
| 20260902022250 | 69 | 31 | 0.0 | 2.6 | 0.00 | 0.01 | 0.00 | 100 | 1014.9 |
| 20260902022050 | 69 | 17 | 0.9 | 2.6 | 0.00 | 0.01 | 0.00 | 100 | 1014.9 |
| 20260902021849 | 69 | 6 | 0.9 | 2.6 | 0.00 | 0.01 | 0.00 | 100 | 1014.9 |
| 20260902021649 | 69 | 6 | 0.0 | 2.6 | 0.00 | 0.01 | 0.00 | 100 | 1014.9 |
| 20260902021449 | 69 | 9 | 0.9 | 2.6 | 0.00 | 0.01 | 0.00 | 100 | 1014.8 |
| 20260902021248 | 69 | 2 | 0.9 | 2.6 | 0.00 | 0.01 | 0.00 | 100 | 1014.9 |
| 20260902021048 | 69 | 10 | 0.0 | 2.6 | 0.00 | 0.01 | 0.00 | 100 | 1014.7 |
| 20260902020848 | 69 | 26 | 0.0 | 2.6 | 0.00 | 0.01 | 0.00 | 100 | 1014.8 |
| 20260902020648 | 69 | 24 | 0.0 | 2.6 | 0.00 | 0.01 | 0.00 | 100 | 1014.8 |
| 20260902020447 | 69 | 19 | 0.0 | 2.6 | 0.00 | 0.01 | 0.00 | 99 | 1014.7 |
| 20260902020247 | 69 | 8 | 0.9 | 3.5 | 0.00 | 0.01 | 0.00 | 99 | 1014.8 |
| 20260902020047 | 69 | 4 | 0.0 | 3.5 | 0.00 | 0.01 | 0.00 | 99 | 1014.7 |
| 20260902015846 | 69 | 4 | 0.0 | 3.5 | 0.00 | 0.01 | 0.00 | 99 | 1014.8 |
| 20260902015646 | 69 | 4 | 0.0 | 3.5 | 0.00 | 0.01 | 0.00 | 99 | 1014.8 |
| 20260902015446 | 69 | 4 | 0.9 | 3.5 | 0.00 | 0.01 | 0.00 | 99 | 1014.9 |
| 20260902015245 | 69 | 3 | 0.0 | 2.6 | 0.00 | 0.01 | 0.00 | 99 | 1014.9 |
| 20260902015045 | 69 | 3 | 0.0 | 2.6 | 0.00 | 0.01 | 0.00 | 99 | 1014.9 |
| 20260902014845 | 69 | 356 | 0.0 | 2.6 | 0.00 | 0.01 | 0.00 | 99 | 1014.9 |
| 20260902014644 | 69 | 7 | 0.9 | 2.6 | 0.00 | 0.01 | 0.00 | 99 | 1014.9 |
| 20260902014444 | 69 | 23 | 0.9 | 2.6 | 0.00 | 0.01 | 0.00 | 99 | 1014.9 |
| 20260902014244 | 69 | 50 | 0.0 | 3.5 | 0.00 | 0.01 | 0.00 | 99 | 1014.9 |
| 20260902014043 | 69 | 53 | 0.0 | 3.5 | 0.00 | 0.01 | 0.00 | 99 | 1014.9 |
| 20260902013843 | 69 | 14 | 0.9 | 3.5 | 0.00 | 0.01 | 0.00 | 99 | 1014.9 |
| 20260902013643 | 69 | 29 | 0.9 | 3.5 | 0.00 | 0.01 | 0.00 | 98 | 1015.0 |
| 20260902013442 | 69 | 50 | 0.9 | 3.5 | 0.00 | 0.01 | 0.00 | 98 | 1014.9 |
| 20260902013242 | 69 | 20 | 0.9 | 3.5 | 0.00 | 0.01 | 0.00 | 98 | 1014.8 |
| 20260902013042 | 69 | 355 | 0.9 | 3.5 | 0.00 | 0.01 | 0.00 | 98 | 1014.8 |
| 20260902012842 | 70 | 336 | 0.0 | 3.5 | 0.00 | 0.01 | 0.00 | 98 | 1014.8 |
| 20260902012641 | 70 | 323 | 0.0 | 3.5 | 0.00 | 0.01 | 0.00 | 98 | 1014.9 |
| 20260902012441 | 70 | 349 | 0.0 | 3.5 | 0.00 | 0.01 | 0.00 | 98 | 1014.8 |
| 20260902012241 | 70 | 349 | 0.0 | 3.5 | 0.00 | 0.01 | 0.00 | 98 | 1014.8 |
| 20260902012040 | 70 | 359 | 0.9 | 3.5 | 0.00 | 0.01 | 0.00 | 98 | 1014.8 |
| 20260902011840 | 70 | 5 | 0.9 | 3.5 | 0.00 | 0.01 | 0.00 | 98 | 1014.8 |
| 20260902011640 | 70 | 1 | 0.9 | 3.5 | 0.00 | 0.01 | 0.00 | 98 | 1014.8 |
| 20260902011439 | 70 | 19 | 0.0 | 2.6 | 0.00 | 0.01 | 0.00 | 98 | 1014.8 |
| 20260902011239 | 70 | 55 | 0.0 | 2.6 | 0.00 | 0.01 | 0.00 | 98 | 1014.8 |
| 20260902011039 | 70 | 51 | 0.0 | 2.6 | 0.00 | 0.01 | 0.00 | 98 | 1014.8 |
| 20260902010838 | 70 | 27 | 0.0 | 2.6 | 0.00 | 0.01 | 0.00 | 97 | 1014.8 |
| 20260902010638 | 70 | 24 | 0.0 | 3.5 | 0.00 | 0.01 | 0.00 | 97 | 1014.8 |
| 20260902010438 | 70 | 5 | 0.0 | 3.5 | 0.00 | 0.01 | 0.00 | 97 | 1014.8 |
| 20260902010238 | 70 | 348 | 0.0 | 4.3 | 0.00 | 0.01 | 0.00 | 97 | 1014.7 |
| 20260902010037 | 70 | 5 | 0.0 | 4.3 | 0.00 | 0.01 | 0.00 | 97 | 1014.7 |
| 20260902005837 | 70 | 46 | 0.9 | 4.3 | 0.00 | 0.01 | 0.00 | 96 | 1014.7 |
| 20260902005637 | 71 | 57 | 1.7 | 4.3 | 0.00 | 0.01 | 0.00 | 96 | 1014.8 |
| 20260902005436 | 71 | 41 | 0.9 | 4.3 | 0.00 | 0.01 | 0.00 | 96 | 1014.7 |
| 20260902005236 | 71 | 18 | 0.9 | 3.5 | 0.00 | 0.01 | 0.00 | 96 | 1014.7 |
| 20260902005036 | 71 | 28 | 0.9 | 3.5 | 0.00 | 0.01 | 0.00 | 96 | 1014.6 |
| 20260902004835 | 71 | 41 | 0.9 | 3.5 | 0.00 | 0.01 | 0.00 | 96 | 1014.6 |
| 20260902004635 | 71 | 30 | 0.0 | 3.5 | 0.00 | 0.01 | 0.00 | 96 | 1014.5 |
| 20260902004435 | 71 | 31 | 0.9 | 3.5 | 0.00 | 0.01 | 0.00 | 96 | 1014.6 |
| 20260902004234 | 71 | 20 | 0.9 | 3.5 | 0.00 | 0.01 | 0.00 | 96 | 1014.5 |
| 20260902004034 | 71 | 27 | 0.0 | 3.5 | 0.00 | 0.01 | 0.00 | 96 | 1014.5 |
| 20260902003834 | 71 | 44 | 0.9 | 3.5 | 0.00 | 0.01 | 0.00 | 95 | 1014.4 |
| 20260902003633 | 72 | 50 | 0.9 | 3.5 | 0.00 | 0.01 | 0.00 | 95 | 1014.5 |
| 20260902003433 | 72 | 48 | 0.0 | 2.6 | 0.00 | 0.01 | 0.00 | 96 | 1014.5 |
| 20260902003233 | 72 | 39 | 0.0 | 2.6 | 0.00 | 0.01 | 0.00 | 95 | 1014.4 |
| 20260902003033 | 72 | 39 | 0.0 | 2.6 | 0.00 | 0.01 | 0.00 | 95 | 1014.5 |
| 20260902002832 | 72 | 37 | 0.0 | 2.6 | 0.00 | 0.01 | 0.00 | 95 | 1014.4 |
| 20260902002632 | 72 | 36 | 0.9 | 2.6 | 0.00 | 0.01 | 0.00 | 95 | 1014.4 |
| 20260902002432 | 72 | 35 | 0.9 | 2.6 | 0.00 | 0.01 | 0.00 | 95 | 1014.3 |
| 20260902002231 | 72 | 44 | 0.0 | 2.6 | 0.00 | 0.01 | 0.00 | 95 | 1014.3 |
| 20260902002031 | 72 | 44 | 0.9 | 2.6 | 0.00 | 0.01 | 0.00 | 95 | 1014.3 |
| 20260902001831 | 72 | 33 | 0.9 | 2.6 | 0.00 | 0.01 | 0.00 | 95 | 1014.2 |
| 20260902001630 | 72 | 49 | 0.9 | 2.6 | 0.00 | 0.01 | 0.00 | 94 | 1014.2 |
| 20260902001430 | 72 | 43 | 0.9 | 4.3 | 0.00 | 0.01 | 0.00 | 94 | 1014.3 |
| 20260902001230 | 72 | 41 | 0.9 | 4.3 | 0.00 | 0.01 | 0.00 | 94 | 1014.3 |
| 20260902001029 | 72 | 41 | 0.0 | 4.3 | 0.00 | 0.01 | 0.00 | 94 | 1014.2 |
| 20260902000829 | 72 | 49 | 0.9 | 4.3 | 0.00 | 0.01 | 0.00 | 94 | 1014.3 |
| 20260902000629 | 73 | 56 | 0.9 | 4.3 | 0.00 | 0.01 | 0.00 | 94 | 1014.3 |
| 20260902000429 | 73 | 56 | 0.9 | 4.3 | 0.00 | 0.01 | 0.00 | 94 | 1014.3 |
| 20260902000228 | 73 | 55 | 0.0 | 1.7 | 0.00 | 0.01 | 0.00 | 94 | 1014.4 |
| 20260902000028 | 73 | 48 | 0.0 | 2.6 | 0.00 | 0.01 | 0.00 | 94 | 1014.4 |
| 20260901235828 | 73 | 36 | 0.0 | 2.6 | 0.00 | 0.01 | 0.00 | 93 | 1014.4 |
| 20260901235627 | 73 | 35 | 0.0 | 2.6 | 0.00 | 0.01 | 0.00 | 93 | 1014.4 |
| 20260901235427 | 73 | 35 | 0.0 | 2.6 | 0.00 | 0.01 | 0.00 | 93 | 1014.4 |
| 20260901235227 | 73 | 49 | 0.9 | 2.6 | 0.00 | 0.01 | 0.00 | 93 | 1014.4 |
| 20260901235026 | 73 | 68 | 0.9 | 2.6 | 0.00 | 0.01 | 0.00 | 93 | 1014.4 |
| 20260901234826 | 73 | 50 | 0.9 | 2.6 | 0.00 | 0.01 | 0.00 | 93 | 1014.4 |
| 20260901234626 | 74 | 51 | 0.9 | 2.6 | 0.00 | 0.01 | 0.00 | 93 | 1014.4 |
| 20260901234426 | 74 | 79 | 0.0 | 1.7 | 0.00 | 0.01 | 0.00 | 93 | 1014.5 |
| 20260901234225 | 74 | 71 | 0.0 | 3.5 | 0.00 | 0.01 | 0.00 | 92 | 1014.4 |
| 20260901234025 | 74 | 31 | 0.0 | 4.3 | 0.00 | 0.01 | 0.00 | 92 | 1014.4 |
| 20260901233824 | 74 | 31 | 0.0 | 4.3 | 0.00 | 0.01 | 0.00 | 92 | 1014.4 |
| 20260901233624 | 74 | 57 | 0.9 | 4.3 | 0.00 | 0.01 | 0.00 | 92 | 1014.4 |
| 20260901233424 | 74 | 61 | 0.9 | 4.3 | 0.00 | 0.01 | 0.00 | 92 | 1014.4 |
| 20260901233223 | 74 | 22 | 0.9 | 4.3 | 0.00 | 0.01 | 0.00 | 92 | 1014.4 |
| 20260901233023 | 74 | 24 | 0.0 | 3.5 | 0.00 | 0.01 | 0.00 | 91 | 1014.3 |
| 20260901232823 | 74 | 67 | 0.9 | 2.6 | 0.00 | 0.01 | 0.00 | 91 | 1014.3 |
| 20260901232623 | 74 | 81 | 0.9 | 2.6 | 0.00 | 0.01 | 0.00 | 91 | 1014.3 |
| 20260901232422 | 74 | 53 | 0.9 | 2.6 | 0.00 | 0.01 | 0.00 | 91 | 1014.3 |
| 20260901232222 | 75 | 31 | 0.9 | 2.6 | 0.00 | 0.01 | 0.00 | 91 | 1014.3 |
| 20260901232022 | 75 | 24 | 0.0 | 2.6 | 0.00 | 0.01 | 0.00 | 91 | 1014.4 |
| 20260901231821 | 75 | 25 | 0.9 | 2.6 | 0.00 | 0.01 | 0.00 | 90 | 1014.4 |
| 20260901231621 | 75 | 57 | 0.9 | 1.7 | 0.00 | 0.01 | 0.00 | 90 | 1014.4 |
| 20260901231421 | 75 | 79 | 0.0 | 1.7 | 0.00 | 0.01 | 0.00 | 90 | 1014.4 |
| 20260901231220 | 75 | 45 | 0.0 | 3.5 | 0.00 | 0.01 | 0.00 | 91 | 1014.4 |
| 20260901231020 | 75 | 31 | 0.0 | 3.5 | 0.00 | 0.01 | 0.00 | 91 | 1014.4 |
| 20260901230820 | 75 | 32 | 0.0 | 3.5 | 0.00 | 0.01 | 0.00 | 90 | 1014.4 |
| 20260901230619 | 75 | 27 | 0.9 | 3.5 | 0.00 | 0.01 | 0.00 | 90 | 1014.4 |
| 20260901230419 | 75 | 13 | 0.9 | 3.5 | 0.00 | 0.01 | 0.00 | 90 | 1014.4 |
| 20260901230219 | 75 | 18 | 0.9 | 2.6 | 0.00 | 0.01 | 0.00 | 89 | 1014.4 |
| 20260901230019 | 76 | 56 | 0.9 | 2.6 | 0.00 | 0.01 | 0.00 | 89 | 1014.4 |
| 20260901225818 | 76 | 53 | 0.9 | 2.6 | 0.00 | 0.01 | 0.00 | 89 | 1014.5 |
| 20260901225618 | 76 | 59 | 0.0 | 2.6 | 0.00 | 0.01 | 0.00 | 89 | 1014.4 |
| 20260901225418 | 76 | 70 | 0.0 | 3.5 | 0.00 | 0.01 | 0.00 | 89 | 1014.4 |
| 20260901225217 | 76 | 53 | 0.0 | 3.5 | 0.00 | 0.01 | 0.00 | 89 | 1014.5 |
| 20260901225017 | 76 | 51 | 0.0 | 3.5 | 0.00 | 0.01 | 0.00 | 89 | 1014.4 |
| 20260901224817 | 76 | 56 | 0.9 | 3.5 | 0.00 | 0.01 | 0.00 | 89 | 1014.4 |
| 20260901224616 | 76 | 65 | 0.9 | 1.7 | 0.00 | 0.01 | 0.00 | 89 | 1014.3 |
| 20260901224416 | 76 | 63 | 0.0 | 1.7 | 0.00 | 0.01 | 0.00 | 88 | 1014.4 |
| 20260901224216 | 76 | 44 | 0.0 | 1.7 | 0.00 | 0.01 | 0.00 | 88 | 1014.4 |
| 20260901224015 | 76 | 12 | 0.0 | 1.7 | 0.00 | 0.01 | 0.00 | 89 | 1014.5 |
| 20260901223815 | 76 | 12 | 0.0 | 1.7 | 0.00 | 0.01 | 0.00 | 89 | 1014.4 |
| 20260901223615 | 76 | 12 | 0.9 | 1.7 | 0.00 | 0.01 | 0.00 | 88 | 1014.5 |
| 20260901223414 | 76 | 11 | 0.0 | 1.7 | 0.00 | 0.01 | 0.00 | 88 | 1014.5 |
| 20260901223214 | 76 | 14 | 0.0 | 3.5 | 0.00 | 0.01 | 0.00 | 88 | 1014.5 |
| 20260901223014 | 76 | 41 | 0.0 | 4.3 | 0.00 | 0.01 | 0.00 | 88 | 1014.5 |
| 20260901222814 | 76 | 22 | 0.0 | 4.3 | 0.00 | 0.01 | 0.00 | 87 | 1014.5 |
| 20260901222613 | 77 | 10 | 0.9 | 4.3 | 0.00 | 0.01 | 0.00 | 87 | 1014.5 |
| 20260901222413 | 77 | 29 | 1.7 | 4.3 | 0.00 | 0.01 | 0.00 | 87 | 1014.5 |
| 20260901222213 | 77 | 57 | 1.7 | 4.3 | 0.00 | 0.01 | 0.00 | 86 | 1014.5 |
| 20260901222012 | 77 | 39 | 0.9 | 4.3 | 0.00 | 0.01 | 0.00 | 86 | 1014.5 |
| 20260901221812 | 78 | 21 | 1.7 | 5.2 | 0.00 | 0.01 | 0.00 | 85 | 1014.5 |
| 20260901221612 | 78 | 56 | 1.7 | 5.2 | 0.00 | 0.01 | 0.00 | 84 | 1014.6 |
| 20260901221411 | 79 | 54 | 1.7 | 5.2 | 0.00 | 0.01 | 0.00 | 84 | 1014.6 |
| 20260901221211 | 79 | 28 | 2.6 | 5.2 | 0.00 | 0.01 | 0.00 | 84 | 1014.6 |